PAL116 RPLL-CYVR
Flight info
| Callsign | PAL116 |
|---|---|
| Flight time | N/A |
| Altitude | 33000 |
| Route | JOM2R JOM A590 BUBDO Y527 DOMBI Y57 POROT Y809 IDLAN Y812 ADNAP OTR5 KALNA/N0486F350 DCT KALIG DCT CUTEE DCT CARTO DCT 50N180E 51N170W 52N160W/N0485F370 53N150W 53N140W DCT MANJO DCT POWOL WHSLR8 |
| Aircraft | B77W/H-L/LB1D1 |
Departure
| Time | N/A |
|---|---|
| Airport | Ninoy Aquino International Airport (RPLL) |
Arrival
| Time | 2026-05-04 23:34 |
|---|---|
| Airport | Vancouver International Airport (CYVR) |
| Time | Latitude | Longitude | Altitude | Speed | Heading |
|---|---|---|---|---|---|
| 2026-05-04 14:42 | 31.43317 | 136.64800 | 33075 ft | 555 kts | 23° |
| 2026-05-04 14:42 | 31.50313 | 136.68488 | 33059 ft | 548 kts | 12° |
| 2026-05-04 14:43 | 31.57447 | 136.71576 | 33053 ft | 545 kts | 12° |
| 2026-05-04 14:43 | 31.64532 | 136.74641 | 33055 ft | 547 kts | 12° |
| 2026-05-04 14:44 | 31.71743 | 136.77771 | 33060 ft | 548 kts | 12° |
| 2026-05-04 14:44 | 31.78859 | 136.80868 | 33070 ft | 549 kts | 13° |
| 2026-05-04 14:45 | 31.86080 | 136.84016 | 33060 ft | 548 kts | 13° |
| 2026-05-04 14:45 | 31.93253 | 136.87148 | 33065 ft | 555 kts | 13° |
| 2026-05-04 14:46 | 32.00499 | 136.90320 | 33064 ft | 555 kts | 13° |
| 2026-05-04 14:46 | 32.07679 | 136.93468 | 33069 ft | 551 kts | 13° |
| 2026-05-04 14:47 | 32.14905 | 136.96642 | 33042 ft | 556 kts | 13° |
| 2026-05-04 14:47 | 32.22196 | 136.99847 | 33048 ft | 557 kts | 13° |
| 2026-05-04 14:48 | 32.29486 | 137.03061 | 33047 ft | 558 kts | 13° |
| 2026-05-04 14:48 | 32.36705 | 137.06249 | 33051 ft | 556 kts | 13° |
| 2026-05-04 14:49 | 32.43970 | 137.09459 | 33052 ft | 560 kts | 13° |
| 2026-05-04 14:49 | 32.51289 | 137.12701 | 33044 ft | 559 kts | 13° |
| 2026-05-04 14:50 | 32.58555 | 137.15927 | 33049 ft | 560 kts | 12° |
| 2026-05-04 14:50 | 32.65885 | 137.19183 | 33044 ft | 561 kts | 13° |
| 2026-05-04 14:51 | 32.73191 | 137.22437 | 33045 ft | 562 kts | 13° |
| 2026-05-04 14:51 | 32.80565 | 137.25725 | 33047 ft | 566 kts | 12° |
| 2026-05-04 14:52 | 32.87907 | 137.29009 | 33043 ft | 561 kts | 12° |
| 2026-05-04 14:52 | 32.95201 | 137.32272 | 33041 ft | 563 kts | 12° |
| 2026-05-04 14:53 | 33.02577 | 137.35579 | 33049 ft | 566 kts | 13° |
| 2026-05-04 14:53 | 33.09936 | 137.38939 | 33037 ft | 569 kts | 17° |
| 2026-05-04 14:54 | 33.16463 | 137.43588 | 33023 ft | 583 kts | 34° |
| 2026-05-04 14:54 | 33.22194 | 137.50563 | 33030 ft | 594 kts | 52° |
| 2026-05-04 14:55 | 33.26667 | 137.58852 | 33025 ft | 595 kts | 59° |
| 2026-05-04 14:55 | 33.30967 | 137.67200 | 33011 ft | 593 kts | 58° |
| 2026-05-04 14:56 | 33.35301 | 137.75604 | 32999 ft | 595 kts | 59° |
| 2026-05-04 14:56 | 33.39661 | 137.84058 | 33008 ft | 595 kts | 59° |
| 2026-05-04 14:57 | 33.43990 | 137.92462 | 33003 ft | 597 kts | 59° |
| 2026-05-04 14:57 | 33.48328 | 138.00894 | 33003 ft | 595 kts | 59° |
| 2026-05-04 14:58 | 33.52671 | 138.09352 | 33004 ft | 599 kts | 59° |
| 2026-05-04 14:58 | 33.57016 | 138.17828 | 33005 ft | 597 kts | 59° |
| 2026-05-04 14:59 | 33.61353 | 138.26308 | 33010 ft | 598 kts | 58° |
| 2026-05-04 15:00 | 33.67821 | 138.38989 | 32993 ft | 594 kts | 59° |
| 2026-05-04 15:00 | 33.72144 | 138.47490 | 32992 ft | 599 kts | 59° |
| 2026-05-04 15:01 | 33.78623 | 138.60265 | 32984 ft | 597 kts | 58° |
| 2026-05-04 15:01 | 33.82908 | 138.68735 | 32959 ft | 592 kts | 60° |
| 2026-05-04 15:02 | 33.87171 | 138.77185 | 32951 ft | 594 kts | 59° |
| 2026-05-04 15:02 | 33.91449 | 138.85681 | 32957 ft | 596 kts | 59° |
| 2026-05-04 15:03 | 33.95730 | 138.94206 | 32967 ft | 598 kts | 60° |
| 2026-05-04 15:03 | 34.00013 | 139.02754 | 32962 ft | 596 kts | 60° |
| 2026-05-04 15:04 | 34.04268 | 139.11269 | 32978 ft | 594 kts | 59° |
| 2026-05-04 15:04 | 34.08550 | 139.19855 | 32954 ft | 594 kts | 59° |
| 2026-05-04 15:05 | 34.12804 | 139.28407 | 32942 ft | 592 kts | 59° |
| 2026-05-04 15:05 | 34.16371 | 139.35594 | 32936 ft | 594 kts | 60° |
| 2026-05-04 15:06 | 34.20608 | 139.44147 | 32943 ft | 591 kts | 59° |
| 2026-05-04 15:07 | 34.26920 | 139.56924 | 32938 ft | 590 kts | 60° |
| 2026-05-04 15:07 | 34.31134 | 139.65485 | 32933 ft | 595 kts | 59° |
| 2026-05-04 15:08 | 34.35354 | 139.74072 | 32915 ft | 592 kts | 60° |
| 2026-05-04 15:08 | 34.39526 | 139.82587 | 32913 ft | 590 kts | 60° |
| 2026-05-04 15:09 | 34.43708 | 139.91144 | 32905 ft | 591 kts | 60° |
| 2026-05-04 15:09 | 34.47879 | 139.99695 | 32909 ft | 593 kts | 61° |
| 2026-05-04 15:10 | 34.54143 | 140.12579 | 32913 ft | 590 kts | 60° |
| 2026-05-04 15:11 | 34.60413 | 140.25523 | 32917 ft | 593 kts | 60° |
| 2026-05-04 15:11 | 34.64550 | 140.34088 | 32914 ft | 592 kts | 61° |
| 2026-05-04 15:12 | 34.68707 | 140.42717 | 32917 ft | 590 kts | 61° |
| 2026-05-04 15:12 | 34.72778 | 140.51378 | 32920 ft | 591 kts | 62° |
| 2026-05-04 15:13 | 34.76767 | 140.60074 | 32911 ft | 590 kts | 62° |
| 2026-05-04 15:13 | 34.80750 | 140.68771 | 32882 ft | 589 kts | 62° |
| 2026-05-04 15:14 | 34.84729 | 140.77472 | 32896 ft | 592 kts | 63° |
| 2026-05-04 15:14 | 34.88689 | 140.86147 | 32896 ft | 586 kts | 63° |
| 2026-05-04 15:15 | 34.92658 | 140.94865 | 32891 ft | 591 kts | 63° |
| 2026-05-04 15:15 | 34.96627 | 141.03600 | 32900 ft | 587 kts | 63° |
| 2026-05-04 15:16 | 35.02563 | 141.16707 | 32910 ft | 590 kts | 63° |
| 2026-05-04 15:17 | 35.08448 | 141.29748 | 32917 ft | 588 kts | 63° |
| 2026-05-04 15:17 | 35.14284 | 141.42729 | 32901 ft | 589 kts | 62° |
| 2026-05-04 15:18 | 35.18213 | 141.51498 | 32903 ft | 588 kts | 62° |
| 2026-05-04 15:19 | 35.24090 | 141.64653 | 32910 ft | 586 kts | 63° |
| 2026-05-04 15:19 | 35.29968 | 141.77864 | 32892 ft | 589 kts | 64° |
| 2026-05-04 15:20 | 35.33853 | 141.86621 | 32899 ft | 587 kts | 64° |
| 2026-05-04 15:20 | 35.37724 | 141.95373 | 32904 ft | 591 kts | 64° |
| 2026-05-04 15:21 | 35.41624 | 142.04211 | 32906 ft | 588 kts | 65° |
| 2026-05-04 15:22 | 35.47450 | 142.17461 | 32911 ft | 591 kts | 64° |
| 2026-05-04 15:22 | 35.53274 | 142.30756 | 32908 ft | 589 kts | 64° |
| 2026-05-04 15:23 | 35.57161 | 142.39659 | 32911 ft | 593 kts | 64° |
| 2026-05-04 15:23 | 35.61040 | 142.48566 | 32910 ft | 593 kts | 64° |
| 2026-05-04 15:24 | 35.68785 | 142.66423 | 32906 ft | 594 kts | 65° |
| 2026-05-04 15:25 | 35.72634 | 142.75333 | 32895 ft | 592 kts | 65° |
| 2026-05-04 15:26 | 35.78439 | 142.88817 | 32892 ft | 595 kts | 65° |
| 2026-05-04 15:26 | 35.84220 | 143.02303 | 32906 ft | 598 kts | 65° |
| 2026-05-04 15:27 | 35.89970 | 143.15762 | 32917 ft | 592 kts | 66° |
| 2026-05-04 15:28 | 35.92861 | 143.25221 | 32911 ft | 585 kts | 83° |
| 2026-05-04 15:28 | 35.93572 | 143.30072 | 32922 ft | 573 kts | 89° |
| 2026-05-04 15:29 | 35.95170 | 143.44600 | 32925 ft | 572 kts | 90° |
| 2026-05-04 15:30 | 35.98637 | 143.78287 | 32894 ft | 564 kts | 90° |
| 2026-05-04 15:31 | 36.00070 | 143.92680 | 32906 ft | 562 kts | 90° |
| 2026-05-04 15:32 | 36.02435 | 144.06903 | 32903 ft | 577 kts | 72° |
| 2026-05-04 15:32 | 36.06335 | 144.15624 | 32899 ft | 586 kts | 54° |
| 2026-05-04 15:34 | 36.20277 | 144.33945 | 32881 ft | 588 kts | 45° |
| 2026-05-04 15:34 | 36.28762 | 144.44955 | 32862 ft | 590 kts | 46° |
| 2026-05-04 15:35 | 36.37196 | 144.56003 | 32866 ft | 589 kts | 46° |
| 2026-05-04 15:36 | 36.45630 | 144.67114 | 32850 ft | 592 kts | 46° |
| 2026-05-04 15:36 | 36.51270 | 144.74574 | 32842 ft | 592 kts | 47° |
| 2026-05-04 15:37 | 36.56859 | 144.81988 | 32851 ft | 591 kts | 46° |
| 2026-05-04 15:37 | 36.62488 | 144.89475 | 32850 ft | 591 kts | 46° |
| 2026-05-04 15:38 | 36.68100 | 144.96954 | 32850 ft | 592 kts | 46° |
| 2026-05-04 15:38 | 36.73710 | 145.04451 | 32834 ft | 592 kts | 46° |
| 2026-05-04 15:39 | 36.79273 | 145.11902 | 32838 ft | 592 kts | 46° |
| 2026-05-04 15:40 | 36.87678 | 145.23192 | 32848 ft | 593 kts | 46° |
| 2026-05-04 15:40 | 36.93264 | 145.30716 | 32842 ft | 592 kts | 46° |
| 2026-05-04 15:41 | 36.98876 | 145.38294 | 32844 ft | 593 kts | 46° |
| 2026-05-04 15:41 | 37.04458 | 145.45848 | 32842 ft | 592 kts | 46° |
| 2026-05-04 15:42 | 37.10031 | 145.53409 | 32837 ft | 594 kts | 46° |
| 2026-05-04 15:42 | 37.15606 | 145.60989 | 32824 ft | 592 kts | 46° |
| 2026-05-04 15:43 | 37.20845 | 145.68974 | 32792 ft | 592 kts | 58° |
| 2026-05-04 15:43 | 37.25251 | 145.77661 | 32789 ft | 592 kts | 59° |
| 2026-05-04 15:44 | 37.29598 | 145.86368 | 32787 ft | 590 kts | 60° |
| 2026-05-04 15:44 | 37.33944 | 145.95102 | 32789 ft | 592 kts | 59° |
| 2026-05-04 15:45 | 37.38292 | 146.03862 | 32793 ft | 590 kts | 59° |
| 2026-05-04 15:45 | 37.42622 | 146.12611 | 32788 ft | 591 kts | 59° |
| 2026-05-04 15:46 | 37.46928 | 146.21336 | 32793 ft | 591 kts | 59° |
| 2026-05-04 15:46 | 37.51250 | 146.30118 | 32804 ft | 589 kts | 59° |
| 2026-05-04 15:47 | 37.55548 | 146.38873 | 32802 ft | 588 kts | 59° |
| 2026-05-04 15:47 | 37.59843 | 146.47647 | 32793 ft | 590 kts | 60° |
| 2026-05-04 15:48 | 37.64139 | 146.56447 | 32790 ft | 590 kts | 60° |
| 2026-05-04 15:48 | 37.70558 | 146.69638 | 32758 ft | 588 kts | 60° |
| 2026-05-04 15:49 | 37.74823 | 146.78433 | 32777 ft | 588 kts | 61° |
| 2026-05-04 15:49 | 37.79085 | 146.87245 | 32763 ft | 589 kts | 61° |
| 2026-05-04 15:50 | 37.83297 | 146.95976 | 32763 ft | 585 kts | 60° |
| 2026-05-04 15:50 | 37.87546 | 147.04811 | 32768 ft | 587 kts | 60° |
| 2026-05-04 15:51 | 37.91782 | 147.13638 | 32753 ft | 586 kts | 61° |
| 2026-05-04 15:51 | 37.95992 | 147.22438 | 32771 ft | 587 kts | 60° |
| 2026-05-04 15:52 | 38.00206 | 147.31270 | 32769 ft | 586 kts | 61° |
| 2026-05-04 15:52 | 38.04375 | 147.40030 | 32767 ft | 586 kts | 60° |
| 2026-05-04 15:53 | 38.08607 | 147.48947 | 32762 ft | 588 kts | 60° |
| 2026-05-04 15:53 | 38.12806 | 147.57820 | 32736 ft | 588 kts | 60° |
| 2026-05-04 15:54 | 38.16985 | 147.66672 | 32717 ft | 587 kts | 61° |
| 2026-05-04 15:54 | 38.21173 | 147.75571 | 32704 ft | 588 kts | 62° |
| 2026-05-04 15:55 | 38.25364 | 147.84497 | 32704 ft | 587 kts | 62° |
| 2026-05-04 15:55 | 38.29534 | 147.93407 | 32710 ft | 587 kts | 62° |
| 2026-05-04 15:56 | 38.33681 | 148.02290 | 32708 ft | 588 kts | 61° |
| 2026-05-04 15:56 | 38.37864 | 148.11275 | 32710 ft | 587 kts | 62° |
| 2026-05-04 15:57 | 38.41996 | 148.20177 | 32710 ft | 588 kts | 61° |
| 2026-05-04 15:57 | 38.46153 | 148.29153 | 32717 ft | 587 kts | 62° |
| 2026-05-04 15:58 | 38.50267 | 148.38068 | 32710 ft | 585 kts | 61° |
| 2026-05-04 15:58 | 38.54390 | 148.47025 | 32712 ft | 589 kts | 62° |
| 2026-05-04 15:59 | 38.58532 | 148.56045 | 32716 ft | 586 kts | 61° |
| 2026-05-04 15:59 | 38.62619 | 148.64972 | 32720 ft | 584 kts | 62° |
| 2026-05-04 16:00 | 38.66701 | 148.73915 | 32705 ft | 586 kts | 62° |
| 2026-05-04 16:00 | 38.70799 | 148.82918 | 32700 ft | 586 kts | 62° |
| 2026-05-04 16:01 | 38.74883 | 148.91914 | 32698 ft | 584 kts | 62° |
| 2026-05-04 16:01 | 38.78936 | 149.00868 | 32699 ft | 583 kts | 62° |
| 2026-05-04 16:02 | 38.82971 | 149.09807 | 32705 ft | 582 kts | 62° |
| 2026-05-04 16:03 | 38.89023 | 149.23263 | 32711 ft | 581 kts | 62° |
| 2026-05-04 16:03 | 38.93059 | 149.32271 | 32698 ft | 581 kts | 61° |
| 2026-05-04 16:04 | 38.97066 | 149.41234 | 32694 ft | 581 kts | 61° |
| 2026-05-04 16:04 | 39.03069 | 149.54715 | 32696 ft | 581 kts | 61° |
| 2026-05-04 16:05 | 39.07070 | 149.63731 | 32694 ft | 581 kts | 62° |
| 2026-05-04 16:06 | 39.13058 | 149.77275 | 32661 ft | 582 kts | 62° |
| 2026-05-04 16:06 | 39.19382 | 149.88388 | 32670 ft | 583 kts | 46° |
| 2026-05-04 16:07 | 39.23107 | 149.93510 | 32660 ft | 585 kts | 46° |
| 2026-05-04 16:08 | 39.34125 | 150.08763 | 32662 ft | 584 kts | 46° |
| 2026-05-04 16:09 | 39.47880 | 150.28035 | 32661 ft | 585 kts | 46° |
| 2026-05-04 16:10 | 39.58869 | 150.43550 | 32662 ft | 584 kts | 46° |
| 2026-05-04 16:11 | 39.69809 | 150.59082 | 32668 ft | 585 kts | 46° |
| 2026-05-04 16:12 | 39.86187 | 150.82489 | 32648 ft | 585 kts | 47° |
| 2026-05-04 16:13 | 39.97120 | 150.98215 | 32648 ft | 585 kts | 47° |
| 2026-05-04 16:14 | 40.07993 | 151.13934 | 32631 ft | 584 kts | 46° |
| 2026-05-04 16:16 | 40.21543 | 151.33638 | 32614 ft | 584 kts | 47° |
| 2026-05-04 16:17 | 40.35032 | 151.53380 | 32626 ft | 583 kts | 47° |
| 2026-05-04 16:18 | 40.45805 | 151.69240 | 32610 ft | 583 kts | 48° |
| 2026-05-04 16:19 | 40.59231 | 151.89122 | 32616 ft | 584 kts | 48° |
| 2026-05-04 16:20 | 40.72663 | 152.09145 | 32614 ft | 585 kts | 48° |
| 2026-05-04 16:22 | 40.86056 | 152.29242 | 32632 ft | 584 kts | 48° |
| 2026-05-04 16:23 | 41.02039 | 152.53400 | 32628 ft | 582 kts | 49° |
| 2026-05-04 16:25 | 41.17969 | 152.77673 | 32582 ft | 584 kts | 49° |
| 2026-05-04 16:26 | 41.36488 | 153.06140 | 32585 ft | 585 kts | 49° |
| 2026-05-04 16:28 | 41.49725 | 153.26653 | 32600 ft | 584 kts | 49° |
| 2026-05-04 16:29 | 41.68118 | 153.55391 | 32599 ft | 581 kts | 49° |
| 2026-05-04 16:31 | 41.81151 | 153.75923 | 32589 ft | 581 kts | 50° |
| 2026-05-04 16:32 | 41.96756 | 154.00694 | 32573 ft | 578 kts | 49° |
| 2026-05-04 16:33 | 42.07103 | 154.17233 | 32577 ft | 578 kts | 49° |
| 2026-05-04 16:34 | 42.14828 | 154.29640 | 32571 ft | 578 kts | 49° |
| 2026-05-04 16:35 | 42.30219 | 154.54517 | 32571 ft | 574 kts | 49° |
| 2026-05-04 16:36 | 42.37836 | 154.66905 | 32565 ft | 577 kts | 50° |
| 2026-05-04 16:37 | 42.45483 | 154.79395 | 32568 ft | 576 kts | 50° |
| 2026-05-04 16:38 | 42.55695 | 154.96156 | 32561 ft | 576 kts | 50° |
| 2026-05-04 16:39 | 42.68372 | 155.17096 | 32567 ft | 575 kts | 50° |
| 2026-05-04 16:40 | 42.78496 | 155.33928 | 32556 ft | 575 kts | 49° |
| 2026-05-04 16:41 | 42.91114 | 155.55040 | 32561 ft | 576 kts | 49° |
| 2026-05-04 16:43 | 43.03616 | 155.76302 | 32561 ft | 576 kts | 51° |
| 2026-05-04 16:43 | 43.11015 | 155.89185 | 32553 ft | 575 kts | 51° |
| 2026-05-04 16:45 | 43.25750 | 156.14980 | 32542 ft | 575 kts | 51° |
| 2026-05-04 16:46 | 43.38025 | 156.36630 | 32554 ft | 577 kts | 51° |
| 2026-05-04 16:47 | 43.47799 | 156.53984 | 32564 ft | 573 kts | 51° |
| 2026-05-04 16:48 | 43.57494 | 156.71298 | 32552 ft | 573 kts | 51° |
| 2026-05-04 16:49 | 43.67195 | 156.88730 | 32561 ft | 572 kts | 51° |
| 2026-05-04 16:50 | 43.76872 | 157.06220 | 32553 ft | 575 kts | 51° |
| 2026-05-04 16:51 | 43.84116 | 157.19382 | 32564 ft | 574 kts | 51° |
| 2026-05-04 16:52 | 43.93726 | 157.36934 | 32560 ft | 574 kts | 51° |
| 2026-05-04 16:53 | 44.00929 | 157.50159 | 32583 ft | 575 kts | 51° |
| 2026-05-04 16:54 | 44.10500 | 157.67827 | 32582 ft | 573 kts | 51° |
| 2026-05-04 16:55 | 44.24799 | 157.94424 | 32564 ft | 576 kts | 51° |
| 2026-05-04 16:56 | 44.36656 | 158.16666 | 32582 ft | 575 kts | 51° |
| 2026-05-04 16:57 | 44.43731 | 158.30020 | 32593 ft | 572 kts | 51° |
| 2026-05-04 16:58 | 44.53158 | 158.47906 | 32602 ft | 573 kts | 51° |
| 2026-05-04 17:00 | 44.67180 | 158.74721 | 32610 ft | 572 kts | 52° |
| 2026-05-04 17:01 | 44.78854 | 158.97238 | 32623 ft | 569 kts | 51° |
| 2026-05-04 17:02 | 44.88122 | 159.15240 | 32637 ft | 570 kts | 51° |
| 2026-05-04 17:03 | 44.95059 | 159.28792 | 32647 ft | 573 kts | 51° |
| 2026-05-04 17:03 | 45.02013 | 159.42436 | 32657 ft | 570 kts | 51° |
| 2026-05-04 17:04 | 45.11286 | 159.60735 | 32681 ft | 573 kts | 51° |
| 2026-05-04 17:05 | 45.20484 | 159.79002 | 32662 ft | 575 kts | 51° |
| 2026-05-04 17:06 | 45.27411 | 159.92841 | 32676 ft | 573 kts | 51° |
| 2026-05-04 17:07 | 45.33507 | 160.05072 | 32689 ft | 570 kts | 51° |
| 2026-05-04 17:07 | 45.38871 | 160.15875 | 32698 ft | 573 kts | 51° |
| 2026-05-04 17:08 | 45.45699 | 160.29692 | 32709 ft | 572 kts | 51° |
| 2026-05-04 17:09 | 45.50258 | 160.38954 | 32721 ft | 571 kts | 50° |
| 2026-05-04 17:09 | 45.54819 | 160.48250 | 32730 ft | 573 kts | 50° |
| 2026-05-04 17:10 | 45.66132 | 160.71440 | 32729 ft | 572 kts | 51° |
| 2026-05-04 17:11 | 45.70672 | 160.80798 | 32745 ft | 573 kts | 51° |
| 2026-05-04 17:12 | 45.77425 | 160.94780 | 32764 ft | 574 kts | 51° |
| 2026-05-04 17:13 | 45.88693 | 161.18262 | 32787 ft | 574 kts | 51° |
| 2026-05-04 17:14 | 45.97637 | 161.37042 | 32815 ft | 572 kts | 50° |
| 2026-05-04 17:15 | 46.04350 | 161.51218 | 32812 ft | 572 kts | 50° |
| 2026-05-04 17:16 | 46.13262 | 161.70154 | 32798 ft | 570 kts | 50° |
| 2026-05-04 17:17 | 46.22121 | 161.89105 | 32839 ft | 567 kts | 50° |
| 2026-05-04 17:18 | 46.30936 | 162.08084 | 32855 ft | 567 kts | 50° |
| 2026-05-04 17:19 | 46.39704 | 162.27092 | 32874 ft | 570 kts | 50° |
| 2026-05-04 17:20 | 46.47783 | 162.47058 | 32883 ft | 573 kts | 55° |
| 2026-05-04 17:20 | 46.53639 | 162.62039 | 32897 ft | 574 kts | 54° |
| 2026-05-04 17:21 | 46.61463 | 162.82211 | 32898 ft | 572 kts | 56° |
| 2026-05-04 17:22 | 46.65375 | 162.92355 | 32901 ft | 573 kts | 54° |
| 2026-05-04 17:23 | 46.73127 | 163.12576 | 32918 ft | 570 kts | 54° |
| 2026-05-04 17:24 | 46.78914 | 163.27766 | 32926 ft | 573 kts | 54° |
| 2026-05-04 17:25 | 46.86594 | 163.48070 | 32937 ft | 570 kts | 54° |
| 2026-05-04 17:26 | 46.94208 | 163.68343 | 32919 ft | 570 kts | 56° |
| 2026-05-04 17:27 | 47.03669 | 163.93749 | 32924 ft | 573 kts | 55° |
| 2026-05-04 17:28 | 47.11201 | 164.14153 | 32939 ft | 569 kts | 55° |
| 2026-05-04 17:29 | 47.22390 | 164.44757 | 32952 ft | 565 kts | 53° |
| 2026-05-04 17:31 | 47.31607 | 164.70230 | 32934 ft | 567 kts | 54° |
| 2026-05-04 17:32 | 47.40733 | 164.95697 | 32944 ft | 564 kts | 54° |
| 2026-05-04 17:33 | 47.48014 | 165.16185 | 32954 ft | 567 kts | 54° |
| 2026-05-04 17:34 | 47.55227 | 165.36656 | 32962 ft | 564 kts | 54° |
| 2026-05-04 17:35 | 47.64148 | 165.62193 | 32975 ft | 557 kts | 53° |
| 2026-05-04 17:36 | 47.67702 | 165.72423 | 32952 ft | 563 kts | 55° |
| 2026-05-04 17:36 | 47.71249 | 165.82695 | 32957 ft | 556 kts | 54° |
| 2026-05-04 17:37 | 47.74782 | 165.92949 | 32957 ft | 563 kts | 54° |
| 2026-05-04 17:37 | 47.78295 | 166.03200 | 32961 ft | 557 kts | 53° |
| 2026-05-04 17:38 | 47.81797 | 166.13449 | 32964 ft | 557 kts | 54° |
| 2026-05-04 17:38 | 47.85300 | 166.23746 | 32969 ft | 558 kts | 54° |
| 2026-05-04 17:39 | 47.90522 | 166.39177 | 32967 ft | 552 kts | 54° |
| 2026-05-04 17:39 | 47.93986 | 166.49448 | 32985 ft | 560 kts | 53° |
| 2026-05-04 17:40 | 47.97442 | 166.59755 | 32986 ft | 557 kts | 54° |
| 2026-05-04 17:40 | 48.00875 | 166.70030 | 32972 ft | 552 kts | 54° |
| 2026-05-04 17:41 | 48.04286 | 166.80281 | 32977 ft | 552 kts | 54° |
| 2026-05-04 17:41 | 48.07713 | 166.90607 | 32973 ft | 555 kts | 54° |
| 2026-05-04 17:42 | 48.11126 | 167.00954 | 32989 ft | 551 kts | 53° |
| 2026-05-04 17:42 | 48.14498 | 167.11208 | 32991 ft | 552 kts | 53° |
| 2026-05-04 17:43 | 48.17840 | 167.21413 | 32987 ft | 550 kts | 54° |
| 2026-05-04 17:43 | 48.21227 | 167.31789 | 32982 ft | 550 kts | 53° |
| 2026-05-04 17:44 | 48.24546 | 167.42015 | 32996 ft | 545 kts | 53° |
| 2026-05-04 17:44 | 48.27878 | 167.52298 | 32994 ft | 551 kts | 53° |
| 2026-05-04 17:45 | 48.31187 | 167.62576 | 32995 ft | 549 kts | 53° |
| 2026-05-04 17:45 | 48.34501 | 167.72894 | 32969 ft | 548 kts | 54° |
| 2026-05-04 17:46 | 48.37796 | 167.83195 | 32974 ft | 552 kts | 53° |
| 2026-05-04 17:46 | 48.41077 | 167.93510 | 32976 ft | 551 kts | 54° |
| 2026-05-04 17:47 | 48.44370 | 168.03893 | 32975 ft | 552 kts | 53° |
| 2026-05-04 17:47 | 48.47665 | 168.14336 | 32972 ft | 549 kts | 53° |
| 2026-05-04 17:48 | 48.50908 | 168.24658 | 32974 ft | 545 kts | 53° |
| 2026-05-04 17:48 | 48.54152 | 168.35002 | 32984 ft | 549 kts | 53° |
| 2026-05-04 17:49 | 48.57363 | 168.45314 | 32975 ft | 545 kts | 52° |
| 2026-05-04 17:49 | 48.60610 | 168.55754 | 32987 ft | 552 kts | 53° |
| 2026-05-04 17:50 | 48.63828 | 168.66173 | 32981 ft | 545 kts | 53° |
| 2026-05-04 17:50 | 48.66934 | 168.76599 | 32967 ft | 556 kts | 59° |
| 2026-05-04 17:51 | 48.69111 | 168.87942 | 32968 ft | 567 kts | 64° |
| 2026-05-04 17:51 | 48.71080 | 168.99353 | 32972 ft | 562 kts | 65° |
| 2026-05-04 17:52 | 48.73058 | 169.10934 | 32972 ft | 573 kts | 65° |
| 2026-05-04 17:52 | 48.74985 | 169.22447 | 32971 ft | 562 kts | 65° |
| 2026-05-04 17:53 | 48.76920 | 169.34041 | 32970 ft | 567 kts | 64° |
| 2026-05-04 17:53 | 48.78808 | 169.45487 | 32972 ft | 565 kts | 64° |
| 2026-05-04 17:54 | 48.80709 | 169.57074 | 32963 ft | 568 kts | 64° |
| 2026-05-04 17:54 | 48.82594 | 169.68678 | 32936 ft | 563 kts | 65° |
| 2026-05-04 17:55 | 48.84460 | 169.80211 | 32941 ft | 570 kts | 65° |
| 2026-05-04 17:55 | 48.86325 | 169.91864 | 32938 ft | 565 kts | 64° |
| 2026-05-04 17:56 | 48.88159 | 170.03378 | 32943 ft | 570 kts | 65° |
| 2026-05-04 17:56 | 48.90018 | 170.15143 | 32945 ft | 566 kts | 64° |
| 2026-05-04 17:57 | 48.91820 | 170.26643 | 32950 ft | 567 kts | 64° |
| 2026-05-04 17:57 | 48.93619 | 170.38197 | 32950 ft | 563 kts | 64° |
| 2026-05-04 17:58 | 48.95418 | 170.49818 | 32945 ft | 564 kts | 63° |
| 2026-05-04 17:58 | 48.97186 | 170.61345 | 32948 ft | 559 kts | 63° |
| 2026-05-04 17:59 | 48.98938 | 170.72827 | 32923 ft | 562 kts | 64° |
| 2026-05-04 17:59 | 49.00656 | 170.84215 | 32912 ft | 549 kts | 64° |
| 2026-05-04 18:00 | 49.01519 | 170.89917 | 32920 ft | 557 kts | 64° |
| 2026-05-04 18:00 | 49.03239 | 171.01404 | 32918 ft | 552 kts | 64° |
| 2026-05-04 18:01 | 49.04913 | 171.12689 | 32915 ft | 549 kts | 63° |
| 2026-05-04 18:01 | 49.06596 | 171.24056 | 32918 ft | 555 kts | 63° |
| 2026-05-04 18:02 | 49.09107 | 171.41254 | 32913 ft | 549 kts | 63° |
| 2026-05-04 18:02 | 49.10771 | 171.52698 | 32958 ft | 556 kts | 63° |
| 2026-05-04 18:03 | 49.11586 | 171.58412 | 32955 ft | 545 kts | 62° |
| 2026-05-04 18:03 | 49.12374 | 171.63937 | 32964 ft | 540 kts | 62° |
| 2026-05-04 18:03 | 49.14011 | 171.75311 | 32939 ft | 557 kts | 64° |
| 2026-05-04 18:04 | 49.15657 | 171.86922 | 32940 ft | 557 kts | 63° |
| 2026-05-04 18:05 | 49.18059 | 172.04077 | 32937 ft | 555 kts | 63° |
| 2026-05-04 18:05 | 49.19665 | 172.15620 | 32955 ft | 560 kts | 63° |
| 2026-05-04 18:06 | 49.21993 | 172.32665 | 32941 ft | 539 kts | 62° |
| 2026-05-04 18:06 | 49.23553 | 172.44029 | 32944 ft | 550 kts | 62° |
| 2026-05-04 18:07 | 49.25093 | 172.55403 | 32931 ft | 555 kts | 63° |
| 2026-05-04 18:07 | 49.26635 | 172.66940 | 32914 ft | 546 kts | 63° |
| 2026-05-04 18:08 | 49.28144 | 172.78268 | 32913 ft | 548 kts | 64° |
| 2026-05-04 18:08 | 49.29644 | 172.89644 | 32923 ft | 547 kts | 63° |
| 2026-05-04 18:09 | 49.32598 | 173.12344 | 32912 ft | 535 kts | 63° |
| 2026-05-04 18:10 | 49.34052 | 173.23601 | 32926 ft | 539 kts | 63° |
| 2026-05-04 18:10 | 49.34754 | 173.29128 | 32909 ft | 528 kts | 64° |
| 2026-05-04 18:10 | 49.35464 | 173.34698 | 32919 ft | 531 kts | 64° |
| 2026-05-04 18:11 | 49.36874 | 173.45770 | 32921 ft | 533 kts | 64° |
| 2026-05-04 18:11 | 49.37567 | 173.51334 | 32914 ft | 520 kts | 64° |
| 2026-05-04 18:11 | 49.38229 | 173.56667 | 32915 ft | 510 kts | 64° |
| 2026-05-04 18:12 | 49.39583 | 173.67421 | 32906 ft | 522 kts | 66° |
| 2026-05-04 18:12 | 49.40929 | 173.78299 | 32899 ft | 515 kts | 66° |
| 2026-05-04 18:13 | 49.42260 | 173.89140 | 32905 ft | 518 kts | 66° |
| 2026-05-04 18:14 | 49.44203 | 174.05158 | 32897 ft | 509 kts | 67° |
| 2026-05-04 18:14 | 49.45489 | 174.15830 | 32896 ft | 511 kts | 68° |
| 2026-05-04 18:15 | 49.48015 | 174.37082 | 32898 ft | 509 kts | 69° |
| 2026-05-04 18:16 | 49.49264 | 174.47743 | 32895 ft | 508 kts | 69° |
| 2026-05-04 18:16 | 49.50497 | 174.58350 | 32891 ft | 505 kts | 70° |
| 2026-05-04 18:17 | 49.52330 | 174.74280 | 32878 ft | 504 kts | 71° |
| 2026-05-04 18:18 | 49.54141 | 174.90208 | 32875 ft | 504 kts | 72° |
| 2026-05-04 18:18 | 49.55325 | 175.00743 | 32881 ft | 503 kts | 72° |
| 2026-05-04 18:19 | 49.57089 | 175.16602 | 32882 ft | 502 kts | 72° |
| 2026-05-04 18:19 | 49.58245 | 175.27118 | 32888 ft | 497 kts | 72° |
| 2026-05-04 18:20 | 49.59396 | 175.37656 | 32880 ft | 501 kts | 73° |
| 2026-05-04 18:20 | 49.60521 | 175.48082 | 32880 ft | 493 kts | 73° |
| 2026-05-04 18:21 | 49.61636 | 175.58479 | 32880 ft | 493 kts | 73° |
| 2026-05-04 18:21 | 49.62742 | 175.68884 | 32875 ft | 493 kts | 74° |
| 2026-05-04 18:22 | 49.63839 | 175.79308 | 32872 ft | 493 kts | 74° |
| 2026-05-04 18:22 | 49.64920 | 175.89668 | 32879 ft | 490 kts | 75° |
| 2026-05-04 18:23 | 49.65995 | 176.00056 | 32886 ft | 492 kts | 75° |
| 2026-05-04 18:23 | 49.67055 | 176.10413 | 32896 ft | 488 kts | 75° |
| 2026-05-04 18:24 | 49.68093 | 176.20645 | 32892 ft | 487 kts | 75° |
| 2026-05-04 18:24 | 49.69132 | 176.30955 | 32880 ft | 486 kts | 75° |
| 2026-05-04 18:25 | 49.70150 | 176.41183 | 32892 ft | 485 kts | 75° |
| 2026-05-04 18:25 | 49.71165 | 176.51459 | 32883 ft | 482 kts | 75° |
| 2026-05-04 18:26 | 49.72165 | 176.61671 | 32885 ft | 482 kts | 75° |
| 2026-05-04 18:26 | 49.73153 | 176.71878 | 32882 ft | 480 kts | 76° |
| 2026-05-04 18:27 | 49.74126 | 176.82016 | 32881 ft | 478 kts | 77° |
| 2026-05-04 18:27 | 49.75088 | 176.92125 | 32874 ft | 477 kts | 77° |
| 2026-05-04 18:28 | 49.76044 | 177.02284 | 32874 ft | 477 kts | 77° |
| 2026-05-04 18:28 | 49.76985 | 177.12369 | 32882 ft | 476 kts | 77° |
| 2026-05-04 18:29 | 49.77917 | 177.22458 | 32889 ft | 476 kts | 77° |
| 2026-05-04 18:29 | 49.78841 | 177.32559 | 32899 ft | 475 kts | 77° |
| 2026-05-04 18:30 | 49.80203 | 177.47639 | 32890 ft | 473 kts | 77° |
| 2026-05-04 18:31 | 49.81100 | 177.57695 | 32907 ft | 474 kts | 77° |
| 2026-05-04 18:31 | 49.81985 | 177.67719 | 32890 ft | 470 kts | 78° |
| 2026-05-04 18:32 | 49.82863 | 177.77760 | 32891 ft | 472 kts | 78° |
| 2026-05-04 18:32 | 49.83731 | 177.87797 | 32876 ft | 471 kts | 78° |
| 2026-05-04 18:33 | 49.84587 | 177.97800 | 32872 ft | 468 kts | 78° |
| 2026-05-04 18:33 | 49.85435 | 178.07799 | 32881 ft | 470 kts | 78° |
| 2026-05-04 18:34 | 49.86272 | 178.17781 | 32895 ft | 467 kts | 79° |
| 2026-05-04 18:34 | 49.87100 | 178.27759 | 32901 ft | 469 kts | 79° |
| 2026-05-04 18:35 | 49.87915 | 178.37694 | 32906 ft | 469 kts | 79° |
| 2026-05-04 18:35 | 49.88731 | 178.47749 | 32891 ft | 465 kts | 79° |
| 2026-05-04 18:36 | 49.89528 | 178.57672 | 32897 ft | 466 kts | 79° |
| 2026-05-04 18:36 | 49.90321 | 178.67651 | 32893 ft | 465 kts | 80° |
| 2026-05-04 18:37 | 49.91098 | 178.77556 | 32885 ft | 465 kts | 80° |
| 2026-05-04 18:37 | 49.91865 | 178.87427 | 32895 ft | 463 kts | 80° |
| 2026-05-04 18:38 | 49.92630 | 178.97389 | 32880 ft | 465 kts | 80° |
| 2026-05-04 18:38 | 49.93378 | 179.07242 | 32882 ft | 463 kts | 80° |
| 2026-05-04 18:39 | 49.94123 | 179.17177 | 32872 ft | 463 kts | 80° |
| 2026-05-04 18:39 | 49.94858 | 179.27083 | 32879 ft | 462 kts | 80° |
| 2026-05-04 18:40 | 49.95581 | 179.36948 | 32893 ft | 461 kts | 81° |
| 2026-05-04 18:40 | 49.96296 | 179.46817 | 32884 ft | 463 kts | 81° |
| 2026-05-04 18:41 | 49.97007 | 179.56761 | 32881 ft | 462 kts | 80° |
| 2026-05-04 18:41 | 49.97704 | 179.66612 | 32889 ft | 461 kts | 81° |
| 2026-05-04 18:42 | 49.98395 | 179.76517 | 32884 ft | 461 kts | 81° |
| 2026-05-04 18:42 | 49.99074 | 179.86362 | 32885 ft | 461 kts | 81° |
| 2026-05-04 18:43 | 49.99746 | 179.96233 | 32879 ft | 459 kts | 81° |
| 2026-05-04 18:43 | 50.00657 | -179.93945 | 32894 ft | 458 kts | 74° |
| 2026-05-04 18:44 | 50.02138 | -179.84378 | 32894 ft | 457 kts | 74° |
| 2026-05-04 18:44 | 50.03575 | -179.74806 | 32895 ft | 457 kts | 75° |
| 2026-05-04 18:45 | 50.04984 | -179.65169 | 32886 ft | 455 kts | 75° |
| 2026-05-04 18:45 | 50.06356 | -179.55627 | 32907 ft | 455 kts | 75° |
| 2026-05-04 18:46 | 50.07711 | -179.46080 | 32893 ft | 454 kts | 76° |
| 2026-05-04 18:46 | 50.09059 | -179.36500 | 32900 ft | 452 kts | 76° |
| 2026-05-04 18:47 | 50.10390 | -179.26956 | 32896 ft | 452 kts | 76° |
| 2026-05-04 18:47 | 50.11718 | -179.17375 | 32913 ft | 454 kts | 76° |
| 2026-05-04 18:48 | 50.13037 | -179.07782 | 32902 ft | 454 kts | 76° |
| 2026-05-04 18:48 | 50.14343 | -178.98225 | 32909 ft | 451 kts | 76° |
| 2026-05-04 18:49 | 50.15636 | -178.88701 | 32902 ft | 450 kts | 76° |
| 2026-05-04 18:49 | 50.16918 | -178.79187 | 32911 ft | 450 kts | 76° |
| 2026-05-04 18:50 | 50.18202 | -178.69601 | 32911 ft | 450 kts | 76° |
| 2026-05-04 18:50 | 50.19467 | -178.60089 | 32924 ft | 450 kts | 76° |
| 2026-05-04 18:51 | 50.20724 | -178.50581 | 32920 ft | 449 kts | 76° |
| 2026-05-04 18:51 | 50.21977 | -178.41031 | 32918 ft | 449 kts | 77° |
| 2026-05-04 18:52 | 50.23227 | -178.31445 | 32927 ft | 448 kts | 77° |
| 2026-05-04 18:52 | 50.24458 | -178.21938 | 32929 ft | 449 kts | 77° |
| 2026-05-04 18:53 | 50.25682 | -178.12415 | 32934 ft | 449 kts | 77° |
| 2026-05-04 18:53 | 50.26897 | -178.02908 | 32940 ft | 447 kts | 77° |
| 2026-05-04 18:54 | 50.28101 | -177.93410 | 32938 ft | 447 kts | 77° |
| 2026-05-04 18:54 | 50.29299 | -177.83897 | 32909 ft | 446 kts | 77° |
| 2026-05-04 18:55 | 50.30489 | -177.74391 | 32943 ft | 447 kts | 77° |
| 2026-05-04 18:55 | 50.32257 | -177.60127 | 32943 ft | 446 kts | 78° |
| 2026-05-04 18:56 | 50.33428 | -177.50595 | 32932 ft | 446 kts | 78° |
| 2026-05-04 18:56 | 50.34584 | -177.41119 | 32922 ft | 444 kts | 78° |
| 2026-05-04 18:57 | 50.35729 | -177.31671 | 32937 ft | 446 kts | 78° |
| 2026-05-04 18:57 | 50.36876 | -177.22131 | 32935 ft | 444 kts | 78° |
| 2026-05-04 18:58 | 50.38005 | -177.12676 | 32933 ft | 444 kts | 78° |
| 2026-05-04 18:58 | 50.39137 | -177.03133 | 32913 ft | 444 kts | 78° |
| 2026-05-04 18:59 | 50.40251 | -176.93661 | 32941 ft | 444 kts | 78° |
| 2026-05-04 18:59 | 50.41362 | -176.84148 | 32932 ft | 445 kts | 79° |
| 2026-05-04 19:00 | 50.42464 | -176.74635 | 32927 ft | 443 kts | 79° |
| 2026-05-04 19:00 | 50.43547 | -176.65228 | 32917 ft | 441 kts | 79° |
| 2026-05-04 19:01 | 50.44632 | -176.55727 | 32942 ft | 443 kts | 79° |
| 2026-05-04 19:01 | 50.45705 | -176.46258 | 32927 ft | 441 kts | 79° |
| 2026-05-04 19:02 | 50.46771 | -176.36775 | 32945 ft | 442 kts | 79° |
| 2026-05-04 19:02 | 50.47828 | -176.27303 | 32918 ft | 442 kts | 79° |
| 2026-05-04 19:03 | 50.48880 | -176.17806 | 32952 ft | 441 kts | 79° |
| 2026-05-04 19:03 | 50.49912 | -176.08415 | 32940 ft | 441 kts | 79° |
| 2026-05-04 19:04 | 50.50947 | -175.98920 | 32944 ft | 440 kts | 79° |
| 2026-05-04 19:04 | 50.51966 | -175.89497 | 32945 ft | 440 kts | 79° |
| 2026-05-04 19:05 | 50.52983 | -175.80017 | 32951 ft | 440 kts | 79° |
| 2026-05-04 19:05 | 50.53993 | -175.70531 | 32947 ft | 440 kts | 79° |
| 2026-05-04 19:06 | 50.54986 | -175.61130 | 32955 ft | 440 kts | 79° |
| 2026-05-04 19:06 | 50.55976 | -175.51677 | 32948 ft | 439 kts | 79° |
| 2026-05-04 19:07 | 50.56959 | -175.42212 | 32943 ft | 440 kts | 79° |
| 2026-05-04 19:07 | 50.57932 | -175.32777 | 32946 ft | 438 kts | 81° |
| 2026-05-04 19:08 | 50.58903 | -175.23273 | 32939 ft | 438 kts | 81° |
| 2026-05-04 19:08 | 50.59857 | -175.13850 | 32956 ft | 438 kts | 81° |
| 2026-05-04 19:09 | 50.60812 | -175.04347 | 32952 ft | 439 kts | 81° |
| 2026-05-04 19:09 | 50.61757 | -174.94864 | 32941 ft | 439 kts | 81° |
| 2026-05-04 19:10 | 50.62692 | -174.85400 | 32977 ft | 440 kts | 81° |
| 2026-05-04 19:10 | 50.63619 | -174.75929 | 32948 ft | 439 kts | 81° |
| 2026-05-04 19:11 | 50.64542 | -174.66422 | 32939 ft | 440 kts | 81° |
| 2026-05-04 19:11 | 50.65452 | -174.56966 | 32964 ft | 441 kts | 81° |
| 2026-05-04 19:12 | 50.66814 | -174.42650 | 32952 ft | 440 kts | 81° |
| 2026-05-04 19:13 | 50.67704 | -174.33199 | 32965 ft | 440 kts | 81° |
| 2026-05-04 19:13 | 50.68596 | -174.23636 | 32943 ft | 441 kts | 81° |
| 2026-05-04 19:14 | 50.69471 | -174.14168 | 32955 ft | 440 kts | 81° |
| 2026-05-04 19:14 | 50.70349 | -174.04578 | 32947 ft | 441 kts | 81° |
| 2026-05-04 19:15 | 50.71215 | -173.95024 | 32940 ft | 442 kts | 81° |
| 2026-05-04 19:15 | 50.72071 | -173.85500 | 32940 ft | 441 kts | 81° |
| 2026-05-04 19:16 | 50.72924 | -173.75915 | 32937 ft | 441 kts | 81° |
| 2026-05-04 19:16 | 50.73765 | -173.66376 | 32941 ft | 442 kts | 81° |
| 2026-05-04 19:17 | 50.74602 | -173.56790 | 32932 ft | 442 kts | 81° |
| 2026-05-04 19:17 | 50.75435 | -173.47153 | 32939 ft | 443 kts | 81° |
| 2026-05-04 19:18 | 50.76254 | -173.37584 | 32939 ft | 443 kts | 81° |
| 2026-05-04 19:18 | 50.77070 | -173.27962 | 32942 ft | 444 kts | 82° |
| 2026-05-04 19:19 | 50.77882 | -173.18286 | 32945 ft | 444 kts | 82° |
| 2026-05-04 19:19 | 50.78682 | -173.08646 | 32945 ft | 445 kts | 82° |
| 2026-05-04 19:20 | 50.79470 | -172.99059 | 32938 ft | 445 kts | 82° |
| 2026-05-04 19:20 | 50.80261 | -172.89334 | 32941 ft | 445 kts | 82° |
| 2026-05-04 19:21 | 50.81038 | -172.79675 | 32943 ft | 446 kts | 82° |
| 2026-05-04 19:21 | 50.81812 | -172.69957 | 32948 ft | 446 kts | 82° |
| 2026-05-04 19:22 | 50.82579 | -172.60228 | 32952 ft | 446 kts | 82° |
| 2026-05-04 19:22 | 50.83341 | -172.50444 | 32953 ft | 448 kts | 82° |
| 2026-05-04 19:23 | 50.84092 | -172.40698 | 32948 ft | 448 kts | 82° |
| 2026-05-04 19:23 | 50.84837 | -172.30919 | 32951 ft | 449 kts | 82° |
| 2026-05-04 19:24 | 50.85580 | -172.21060 | 32954 ft | 450 kts | 82° |
| 2026-05-04 19:24 | 50.86306 | -172.11308 | 32959 ft | 451 kts | 82° |
| 2026-05-04 19:25 | 50.87031 | -172.01462 | 32967 ft | 451 kts | 82° |
| 2026-05-04 19:25 | 50.87743 | -171.91667 | 32967 ft | 452 kts | 82° |
| 2026-05-04 19:26 | 50.88456 | -171.81746 | 32960 ft | 451 kts | 82° |
| 2026-05-04 19:26 | 50.89154 | -171.71919 | 32959 ft | 452 kts | 82° |
| 2026-05-04 19:27 | 50.89848 | -171.62033 | 32961 ft | 453 kts | 82° |
| 2026-05-04 19:27 | 50.90537 | -171.52081 | 32959 ft | 454 kts | 82° |
| 2026-05-04 19:28 | 50.91214 | -171.42192 | 32950 ft | 455 kts | 82° |
| 2026-05-04 19:28 | 50.91890 | -171.32175 | 32952 ft | 454 kts | 83° |
| 2026-05-04 19:29 | 50.92554 | -171.22224 | 32953 ft | 457 kts | 83° |
| 2026-05-04 19:29 | 50.93208 | -171.12286 | 32947 ft | 456 kts | 83° |
| 2026-05-04 19:30 | 50.93856 | -171.02309 | 32948 ft | 457 kts | 83° |
| 2026-05-04 19:30 | 50.94500 | -170.92250 | 32945 ft | 457 kts | 83° |
| 2026-05-04 19:31 | 50.95134 | -170.82220 | 32946 ft | 459 kts | 83° |
| 2026-05-04 19:31 | 50.95759 | -170.72195 | 32942 ft | 458 kts | 83° |
| 2026-05-04 19:32 | 50.96379 | -170.62091 | 32948 ft | 460 kts | 83° |
| 2026-05-04 19:32 | 50.96991 | -170.52002 | 32948 ft | 461 kts | 83° |
| 2026-05-04 19:33 | 50.97590 | -170.41965 | 32943 ft | 461 kts | 83° |
| 2026-05-04 19:33 | 50.98184 | -170.31857 | 32950 ft | 463 kts | 84° |
| 2026-05-04 19:34 | 50.98775 | -170.21669 | 32947 ft | 463 kts | 84° |
| 2026-05-04 19:34 | 50.99354 | -170.11510 | 32954 ft | 465 kts | 84° |
| 2026-05-04 19:35 | 50.99924 | -170.01364 | 32952 ft | 465 kts | 84° |
| 2026-05-04 19:35 | 51.01006 | -169.91226 | 32951 ft | 464 kts | 74° |
| 2026-05-04 19:36 | 51.02560 | -169.81319 | 32941 ft | 465 kts | 75° |
| 2026-05-04 19:36 | 51.04058 | -169.71352 | 32946 ft | 465 kts | 75° |
| 2026-05-04 19:37 | 51.05520 | -169.61328 | 32943 ft | 466 kts | 76° |
| 2026-05-04 19:37 | 51.06955 | -169.51303 | 32934 ft | 466 kts | 75° |
| 2026-05-04 19:38 | 51.08368 | -169.41309 | 32935 ft | 468 kts | 75° |
| 2026-05-04 19:38 | 51.09784 | -169.31200 | 32935 ft | 469 kts | 76° |
| 2026-05-04 19:39 | 51.11192 | -169.21054 | 32937 ft | 471 kts | 76° |
| 2026-05-04 19:39 | 51.12590 | -169.10908 | 32933 ft | 471 kts | 76° |
| 2026-05-04 19:40 | 51.13978 | -169.00757 | 32932 ft | 471 kts | 76° |
| 2026-05-04 19:40 | 51.15356 | -168.90608 | 32931 ft | 472 kts | 76° |
| 2026-05-04 19:41 | 51.16734 | -168.80386 | 32933 ft | 472 kts | 76° |
| 2026-05-04 19:41 | 51.18106 | -168.70129 | 32933 ft | 474 kts | 76° |
| 2026-05-04 19:42 | 51.19478 | -168.59807 | 32932 ft | 476 kts | 76° |
| 2026-05-04 19:42 | 51.20830 | -168.49558 | 32929 ft | 475 kts | 76° |
| 2026-05-04 19:43 | 51.22180 | -168.39250 | 32935 ft | 477 kts | 76° |
| 2026-05-04 19:43 | 51.23525 | -168.28906 | 32929 ft | 477 kts | 77° |
| 2026-05-04 19:44 | 51.24858 | -168.18574 | 32929 ft | 478 kts | 77° |
| 2026-05-04 19:44 | 51.26195 | -168.08138 | 32930 ft | 480 kts | 77° |
| 2026-05-04 19:45 | 51.27518 | -167.97736 | 32928 ft | 479 kts | 77° |
| 2026-05-04 19:45 | 51.28834 | -167.87302 | 32926 ft | 482 kts | 77° |
| 2026-05-04 19:46 | 51.30141 | -167.76860 | 32922 ft | 481 kts | 77° |
| 2026-05-04 19:46 | 51.31440 | -167.66411 | 32924 ft | 482 kts | 77° |
| 2026-05-04 19:47 | 51.32741 | -167.55856 | 32920 ft | 482 kts | 77° |
| 2026-05-04 19:47 | 51.34018 | -167.45416 | 32922 ft | 483 kts | 77° |
| 2026-05-04 19:48 | 51.35294 | -167.34906 | 32921 ft | 483 kts | 77° |
| 2026-05-04 19:48 | 51.36559 | -167.24396 | 32913 ft | 484 kts | 77° |
| 2026-05-04 19:49 | 51.37822 | -167.13821 | 32913 ft | 485 kts | 77° |
| 2026-05-04 19:49 | 51.39080 | -167.03204 | 32910 ft | 487 kts | 77° |
| 2026-05-04 19:50 | 51.40323 | -166.92625 | 32914 ft | 487 kts | 77° |
| 2026-05-04 19:50 | 51.41565 | -166.81969 | 32911 ft | 487 kts | 77° |
| 2026-05-04 19:51 | 51.42793 | -166.71344 | 32910 ft | 486 kts | 77° |
| 2026-05-04 19:51 | 51.44017 | -166.60663 | 32908 ft | 488 kts | 77° |
| 2026-05-04 19:52 | 51.45227 | -166.50008 | 32910 ft | 488 kts | 77° |
| 2026-05-04 19:52 | 51.46425 | -166.39375 | 32901 ft | 488 kts | 77° |
| 2026-05-04 19:53 | 51.47624 | -166.28645 | 32893 ft | 489 kts | 78° |
| 2026-05-04 19:53 | 51.48812 | -166.17914 | 32895 ft | 489 kts | 78° |
| 2026-05-04 19:54 | 51.49983 | -166.07243 | 32891 ft | 490 kts | 78° |
| 2026-05-04 19:54 | 51.51154 | -165.96483 | 32882 ft | 489 kts | 78° |
| 2026-05-04 19:55 | 51.52320 | -165.85666 | 32885 ft | 491 kts | 78° |
| 2026-05-04 19:55 | 51.53467 | -165.74936 | 32883 ft | 491 kts | 78° |
| 2026-05-04 19:56 | 51.54610 | -165.64137 | 32881 ft | 491 kts | 78° |
| 2026-05-04 19:56 | 51.55749 | -165.53279 | 32880 ft | 491 kts | 78° |
| 2026-05-04 19:57 | 51.56868 | -165.42514 | 32880 ft | 492 kts | 78° |
| 2026-05-04 19:57 | 51.57986 | -165.31656 | 32874 ft | 491 kts | 79° |
| 2026-05-04 19:58 | 51.59085 | -165.20877 | 32879 ft | 491 kts | 78° |
| 2026-05-04 19:58 | 51.60185 | -165.09996 | 32874 ft | 492 kts | 78° |
| 2026-05-04 19:59 | 51.61272 | -164.99127 | 32871 ft | 492 kts | 78° |
| 2026-05-04 19:59 | 51.62349 | -164.88271 | 32868 ft | 493 kts | 78° |
| 2026-05-04 20:00 | 51.63414 | -164.77408 | 32871 ft | 493 kts | 78° |
| 2026-05-04 20:00 | 51.64468 | -164.66557 | 32859 ft | 494 kts | 78° |
| 2026-05-04 20:01 | 51.65514 | -164.55687 | 32852 ft | 493 kts | 78° |
| 2026-05-04 20:01 | 51.66552 | -164.44783 | 32856 ft | 492 kts | 78° |
| 2026-05-04 20:02 | 51.67586 | -164.33813 | 32845 ft | 493 kts | 79° |
| 2026-05-04 20:02 | 51.68594 | -164.23010 | 32833 ft | 493 kts | 79° |
| 2026-05-04 20:03 | 51.69607 | -164.12033 | 32829 ft | 493 kts | 79° |
| 2026-05-04 20:03 | 51.70605 | -164.01097 | 32826 ft | 493 kts | 79° |
| 2026-05-04 20:04 | 51.71587 | -163.90237 | 32820 ft | 493 kts | 79° |
| 2026-05-04 20:04 | 51.72565 | -163.79298 | 32814 ft | 493 kts | 79° |
| 2026-05-04 20:05 | 51.73526 | -163.68434 | 32814 ft | 493 kts | 79° |
| 2026-05-04 20:05 | 51.74477 | -163.57559 | 32809 ft | 493 kts | 79° |
| 2026-05-04 20:06 | 51.75427 | -163.46588 | 32814 ft | 493 kts | 79° |
| 2026-05-04 20:06 | 51.76361 | -163.35669 | 32805 ft | 492 kts | 79° |
| 2026-05-04 20:07 | 51.77287 | -163.24722 | 32796 ft | 492 kts | 80° |
| 2026-05-04 20:07 | 51.78198 | -163.13835 | 32804 ft | 491 kts | 80° |
| 2026-05-04 20:08 | 51.79102 | -163.02893 | 32797 ft | 491 kts | 80° |
| 2026-05-04 20:08 | 51.79992 | -162.92001 | 32789 ft | 491 kts | 80° |
| 2026-05-04 20:09 | 51.80872 | -162.81114 | 32785 ft | 491 kts | 80° |
| 2026-05-04 20:09 | 51.81741 | -162.70216 | 32772 ft | 489 kts | 80° |
| 2026-05-04 20:10 | 51.82600 | -162.59326 | 32762 ft | 490 kts | 80° |
| 2026-05-04 20:10 | 51.83448 | -162.48441 | 32762 ft | 489 kts | 80° |
| 2026-05-04 20:11 | 51.84281 | -162.37619 | 32758 ft | 488 kts | 80° |
| 2026-05-04 20:11 | 51.85107 | -162.26747 | 32743 ft | 487 kts | 81° |
| 2026-05-04 20:12 | 51.85920 | -162.15912 | 32756 ft | 488 kts | 81° |
| 2026-05-04 20:12 | 51.86722 | -162.05093 | 32751 ft | 486 kts | 82° |
| 2026-05-04 20:13 | 51.87514 | -161.94273 | 32742 ft | 486 kts | 82° |
| 2026-05-04 20:13 | 51.88298 | -161.83415 | 32739 ft | 486 kts | 82° |
| 2026-05-04 20:14 | 51.89072 | -161.72553 | 32734 ft | 486 kts | 82° |
| 2026-05-04 20:14 | 51.89834 | -161.61729 | 32724 ft | 485 kts | 82° |
| 2026-05-04 20:15 | 51.90583 | -161.50928 | 32720 ft | 485 kts | 82° |
| 2026-05-04 20:15 | 51.91321 | -161.40153 | 32720 ft | 485 kts | 82° |
| 2026-05-04 20:16 | 51.92053 | -161.29303 | 32710 ft | 485 kts | 83° |
| 2026-05-04 20:16 | 51.92774 | -161.18480 | 32700 ft | 483 kts | 83° |
| 2026-05-04 20:17 | 51.93482 | -161.07689 | 32691 ft | 482 kts | 83° |
| 2026-05-04 20:17 | 51.94179 | -160.96919 | 32689 ft | 482 kts | 83° |
| 2026-05-04 20:18 | 51.94864 | -160.86182 | 32691 ft | 484 kts | 83° |
| 2026-05-04 20:18 | 51.95547 | -160.75311 | 32675 ft | 484 kts | 83° |
| 2026-05-04 20:19 | 51.96216 | -160.64506 | 32661 ft | 483 kts | 83° |
| 2026-05-04 20:19 | 51.96875 | -160.53697 | 32659 ft | 484 kts | 83° |
| 2026-05-04 20:20 | 51.97524 | -160.42883 | 32646 ft | 484 kts | 83° |
| 2026-05-04 20:20 | 51.98166 | -160.32021 | 32649 ft | 485 kts | 83° |
| 2026-05-04 20:21 | 51.98794 | -160.21234 | 32632 ft | 485 kts | 83° |
| 2026-05-04 20:21 | 51.99723 | -160.04932 | 32621 ft | 485 kts | 83° |
| 2026-05-04 20:22 | 52.00532 | -159.94095 | 32609 ft | 483 kts | 75° |
| 2026-05-04 20:22 | 52.02177 | -159.83546 | 32600 ft | 483 kts | 73° |
| 2026-05-04 20:23 | 52.03786 | -159.72972 | 32595 ft | 483 kts | 74° |
| 2026-05-04 20:23 | 52.05342 | -159.62381 | 32596 ft | 484 kts | 75° |
| 2026-05-04 20:24 | 52.06868 | -159.51762 | 32584 ft | 484 kts | 75° |
| 2026-05-04 20:24 | 52.08364 | -159.41194 | 32584 ft | 484 kts | 75° |
| 2026-05-04 20:25 | 52.09853 | -159.30554 | 32561 ft | 485 kts | 75° |
| 2026-05-04 20:25 | 52.11339 | -159.19838 | 32564 ft | 486 kts | 75° |
| 2026-05-04 20:26 | 52.12811 | -159.09126 | 32556 ft | 486 kts | 75° |
| 2026-05-04 20:26 | 52.14262 | -158.98486 | 32541 ft | 487 kts | 75° |
| 2026-05-04 20:27 | 52.15721 | -158.87706 | 32539 ft | 485 kts | 75° |
| 2026-05-04 20:27 | 52.17154 | -158.77033 | 32531 ft | 484 kts | 75° |
| 2026-05-04 20:28 | 52.18578 | -158.66353 | 32533 ft | 486 kts | 75° |
| 2026-05-04 20:28 | 52.19994 | -158.55653 | 32536 ft | 485 kts | 75° |
| 2026-05-04 20:29 | 52.21398 | -158.44960 | 32524 ft | 486 kts | 75° |
| 2026-05-04 20:29 | 52.22799 | -158.34209 | 32525 ft | 487 kts | 76° |
| 2026-05-04 20:30 | 52.24194 | -158.23424 | 32511 ft | 486 kts | 76° |
| 2026-05-04 20:30 | 52.25583 | -158.12607 | 32506 ft | 487 kts | 76° |
| 2026-05-04 20:31 | 52.26951 | -158.01859 | 32490 ft | 487 kts | 76° |
| 2026-05-04 20:31 | 52.28306 | -157.91135 | 32468 ft | 486 kts | 76° |
| 2026-05-04 20:32 | 52.29660 | -157.80339 | 32478 ft | 487 kts | 76° |
| 2026-05-04 20:32 | 52.31007 | -157.69510 | 32474 ft | 487 kts | 77° |
| 2026-05-04 20:33 | 52.32341 | -157.58694 | 32478 ft | 488 kts | 77° |
| 2026-05-04 20:33 | 52.33668 | -157.47855 | 32477 ft | 486 kts | 77° |
| 2026-05-04 20:34 | 52.34981 | -157.37045 | 32465 ft | 487 kts | 77° |
| 2026-05-04 20:34 | 52.36286 | -157.26213 | 32453 ft | 488 kts | 78° |
| 2026-05-04 20:35 | 52.37584 | -157.15346 | 32468 ft | 487 kts | 78° |
| 2026-05-04 20:35 | 52.38863 | -157.04550 | 32454 ft | 489 kts | 78° |
| 2026-05-04 20:36 | 52.40136 | -156.93707 | 32456 ft | 486 kts | 78° |
| 2026-05-04 20:36 | 52.41405 | -156.82823 | 32452 ft | 487 kts | 78° |
| 2026-05-04 20:37 | 52.42656 | -156.71991 | 32443 ft | 486 kts | 78° |
| 2026-05-04 20:37 | 52.43908 | -156.61061 | 32453 ft | 487 kts | 78° |
| 2026-05-04 20:38 | 52.45142 | -156.50192 | 32435 ft | 486 kts | 79° |
| 2026-05-04 20:38 | 52.46366 | -156.39317 | 32440 ft | 486 kts | 79° |
| 2026-05-04 20:39 | 52.47575 | -156.28484 | 32442 ft | 485 kts | 80° |
| 2026-05-04 20:39 | 52.48772 | -156.17664 | 32430 ft | 485 kts | 80° |
| 2026-05-04 20:40 | 52.49961 | -156.06821 | 32433 ft | 484 kts | 80° |
| 2026-05-04 20:40 | 52.51144 | -155.95935 | 32440 ft | 486 kts | 80° |
| 2026-05-04 20:41 | 52.52315 | -155.85069 | 32432 ft | 486 kts | 81° |
| 2026-05-04 20:41 | 52.53478 | -155.74175 | 32432 ft | 486 kts | 81° |
| 2026-05-04 20:42 | 52.54630 | -155.63277 | 32425 ft | 486 kts | 81° |
| 2026-05-04 20:42 | 52.55774 | -155.52356 | 32426 ft | 485 kts | 81° |
| 2026-05-04 20:43 | 52.56905 | -155.41461 | 32417 ft | 485 kts | 81° |
| 2026-05-04 20:43 | 52.58022 | -155.30603 | 32407 ft | 485 kts | 82° |
| 2026-05-04 20:44 | 52.59134 | -155.19685 | 32406 ft | 485 kts | 82° |
| 2026-05-04 20:44 | 52.60235 | -155.08778 | 32404 ft | 485 kts | 82° |
| 2026-05-04 20:45 | 52.61324 | -154.97875 | 32408 ft | 484 kts | 82° |
| 2026-05-04 20:45 | 52.62401 | -154.86999 | 32399 ft | 484 kts | 82° |
| 2026-05-04 20:46 | 52.63470 | -154.76083 | 32402 ft | 484 kts | 82° |
| 2026-05-04 20:46 | 52.64527 | -154.65193 | 32408 ft | 484 kts | 83° |
| 2026-05-04 20:47 | 52.65575 | -154.54292 | 32406 ft | 484 kts | 83° |
| 2026-05-04 20:47 | 52.66611 | -154.43393 | 32408 ft | 483 kts | 83° |
| 2026-05-04 20:48 | 52.67636 | -154.32498 | 32401 ft | 483 kts | 84° |
| 2026-05-04 20:48 | 52.68654 | -154.21578 | 32400 ft | 483 kts | 84° |
| 2026-05-04 20:49 | 52.69656 | -154.10722 | 32400 ft | 484 kts | 84° |
| 2026-05-04 20:49 | 52.70652 | -153.99803 | 32394 ft | 482 kts | 84° |
| 2026-05-04 20:50 | 52.71636 | -153.88911 | 32395 ft | 482 kts | 84° |
| 2026-05-04 20:50 | 52.72609 | -153.78015 | 32394 ft | 482 kts | 84° |
| 2026-05-04 20:51 | 52.73571 | -153.67139 | 32390 ft | 482 kts | 85° |
| 2026-05-04 20:51 | 52.74524 | -153.56236 | 32393 ft | 484 kts | 85° |
| 2026-05-04 20:52 | 52.75474 | -153.45247 | 32393 ft | 483 kts | 85° |
| 2026-05-04 20:52 | 52.76413 | -153.34265 | 32397 ft | 484 kts | 86° |
| 2026-05-04 20:53 | 52.77338 | -153.23332 | 32384 ft | 483 kts | 86° |
| 2026-05-04 20:53 | 52.78252 | -153.12399 | 32397 ft | 483 kts | 86° |
| 2026-05-04 20:54 | 52.79154 | -153.01488 | 32394 ft | 483 kts | 86° |
| 2026-05-04 20:54 | 52.80049 | -152.90532 | 32398 ft | 482 kts | 86° |
| 2026-05-04 20:55 | 52.80937 | -152.79538 | 32402 ft | 483 kts | 86° |
| 2026-05-04 20:55 | 52.81809 | -152.68610 | 32403 ft | 484 kts | 87° |
| 2026-05-04 20:56 | 52.82674 | -152.57645 | 32408 ft | 482 kts | 87° |
| 2026-05-04 20:56 | 52.83531 | -152.46645 | 32388 ft | 482 kts | 87° |
| 2026-05-04 20:57 | 52.84371 | -152.35721 | 32408 ft | 483 kts | 87° |
| 2026-05-04 20:57 | 52.85201 | -152.24795 | 32422 ft | 482 kts | 88° |
| 2026-05-04 20:58 | 52.86026 | -152.13798 | 32418 ft | 482 kts | 88° |
| 2026-05-04 20:58 | 52.86837 | -152.02849 | 32427 ft | 483 kts | 88° |
| 2026-05-04 20:59 | 52.87642 | -151.91859 | 32428 ft | 482 kts | 89° |
| 2026-05-04 20:59 | 52.88435 | -151.80875 | 32417 ft | 479 kts | 89° |
| 2026-05-04 21:00 | 52.89215 | -151.69920 | 32438 ft | 481 kts | 89° |
| 2026-05-04 21:00 | 52.89984 | -151.58983 | 32433 ft | 481 kts | 89° |
| 2026-05-04 21:01 | 52.90743 | -151.48045 | 32439 ft | 480 kts | 89° |
| 2026-05-04 21:01 | 52.91492 | -151.37106 | 32454 ft | 478 kts | 89° |
| 2026-05-04 21:02 | 52.92232 | -151.26114 | 32463 ft | 481 kts | 90° |
| 2026-05-04 21:02 | 52.92963 | -151.15132 | 32459 ft | 481 kts | 91° |
| 2026-05-04 21:03 | 52.93682 | -151.04175 | 32478 ft | 480 kts | 91° |
| 2026-05-04 21:03 | 52.94395 | -150.93144 | 32497 ft | 481 kts | 91° |
| 2026-05-04 21:04 | 52.95091 | -150.82210 | 32496 ft | 480 kts | 91° |
| 2026-05-04 21:04 | 52.95781 | -150.71216 | 32512 ft | 482 kts | 91° |
| 2026-05-04 21:05 | 52.96464 | -150.60164 | 32522 ft | 480 kts | 91° |
| 2026-05-04 21:05 | 52.97134 | -150.49152 | 32529 ft | 482 kts | 91° |
| 2026-05-04 21:06 | 52.97793 | -150.38152 | 32535 ft | 483 kts | 92° |
| 2026-05-04 21:06 | 52.98450 | -150.27029 | 32554 ft | 480 kts | 93° |
| 2026-05-04 21:07 | 52.99088 | -150.16040 | 32563 ft | 480 kts | 94° |
| 2026-05-04 21:07 | 52.99715 | -150.05034 | 32562 ft | 484 kts | 94° |
| 2026-05-04 21:08 | 53.00240 | -149.93956 | 32545 ft | 481 kts | 95° |
| 2026-05-04 21:08 | 53.00698 | -149.82956 | 32542 ft | 480 kts | 95° |
| 2026-05-04 21:09 | 53.01144 | -149.71902 | 32556 ft | 482 kts | 95° |
| 2026-05-04 21:09 | 53.01580 | -149.60814 | 32562 ft | 480 kts | 95° |
| 2026-05-04 21:10 | 53.02004 | -149.49788 | 32571 ft | 480 kts | 96° |
| 2026-05-04 21:10 | 53.02417 | -149.38692 | 32581 ft | 483 kts | 95° |
| 2026-05-04 21:11 | 53.02822 | -149.27629 | 32590 ft | 478 kts | 97° |
| 2026-05-04 21:11 | 53.03214 | -149.16519 | 32594 ft | 483 kts | 97° |
| 2026-05-04 21:12 | 53.03598 | -149.05444 | 32611 ft | 480 kts | 97° |
| 2026-05-04 21:12 | 53.03971 | -148.94295 | 32622 ft | 481 kts | 97° |
| 2026-05-04 21:13 | 53.04332 | -148.83211 | 32627 ft | 484 kts | 97° |
| 2026-05-04 21:13 | 53.04684 | -148.72194 | 32634 ft | 482 kts | 97° |
| 2026-05-04 21:14 | 53.05025 | -148.61096 | 32643 ft | 479 kts | 97° |
| 2026-05-04 21:14 | 53.05355 | -148.50085 | 32653 ft | 477 kts | 97° |
| 2026-05-04 21:15 | 53.05671 | -148.39128 | 32666 ft | 479 kts | 97° |
| 2026-05-04 21:15 | 53.05981 | -148.28059 | 32673 ft | 476 kts | 98° |
| 2026-05-04 21:16 | 53.06278 | -148.17055 | 32688 ft | 478 kts | 98° |
| 2026-05-04 21:16 | 53.06566 | -148.06064 | 32693 ft | 476 kts | 98° |
| 2026-05-04 21:17 | 53.06843 | -147.95062 | 32691 ft | 477 kts | 98° |
| 2026-05-04 21:17 | 53.07111 | -147.84137 | 32696 ft | 473 kts | 98° |
| 2026-05-04 21:18 | 53.07365 | -147.73177 | 32692 ft | 476 kts | 98° |
| 2026-05-04 21:18 | 53.07612 | -147.62203 | 32693 ft | 474 kts | 98° |
| 2026-05-04 21:19 | 53.07848 | -147.51209 | 32731 ft | 476 kts | 98° |
| 2026-05-04 21:19 | 53.08076 | -147.40192 | 32741 ft | 475 kts | 99° |
| 2026-05-04 21:20 | 53.08291 | -147.29216 | 32752 ft | 476 kts | 99° |
| 2026-05-04 21:20 | 53.08495 | -147.18306 | 32768 ft | 479 kts | 99° |
| 2026-05-04 21:21 | 53.08692 | -147.07352 | 32768 ft | 476 kts | 100° |
| 2026-05-04 21:21 | 53.08878 | -146.96335 | 32770 ft | 476 kts | 100° |
| 2026-05-04 21:22 | 53.09053 | -146.85481 | 32785 ft | 473 kts | 100° |
| 2026-05-04 21:22 | 53.09219 | -146.74518 | 32794 ft | 470 kts | 99° |
| 2026-05-04 21:23 | 53.09371 | -146.63608 | 32806 ft | 473 kts | 99° |
| 2026-05-04 21:23 | 53.09516 | -146.52728 | 32817 ft | 473 kts | 100° |
| 2026-05-04 21:24 | 53.09652 | -146.41895 | 32826 ft | 468 kts | 100° |
| 2026-05-04 21:24 | 53.09775 | -146.31017 | 32833 ft | 468 kts | 101° |
| 2026-05-04 21:25 | 53.09886 | -146.20219 | 32836 ft | 473 kts | 101° |
| 2026-05-04 21:25 | 53.09994 | -146.09364 | 32840 ft | 467 kts | 101° |
| 2026-05-04 21:26 | 53.10087 | -145.98503 | 32814 ft | 470 kts | 101° |
| 2026-05-04 21:26 | 53.10171 | -145.87665 | 32821 ft | 469 kts | 101° |
| 2026-05-04 21:27 | 53.10247 | -145.76837 | 32838 ft | 468 kts | 101° |
| 2026-05-04 21:27 | 53.10310 | -145.66038 | 32846 ft | 470 kts | 101° |
| 2026-05-04 21:28 | 53.10368 | -145.55237 | 32848 ft | 467 kts | 101° |
| 2026-05-04 21:28 | 53.10412 | -145.44435 | 32856 ft | 468 kts | 101° |
| 2026-05-04 21:29 | 53.10445 | -145.33490 | 32867 ft | 469 kts | 102° |
| 2026-05-04 21:29 | 53.10471 | -145.22704 | 32870 ft | 471 kts | 102° |
| 2026-05-04 21:30 | 53.10490 | -145.11881 | 32884 ft | 465 kts | 102° |
| 2026-05-04 21:30 | 53.10493 | -145.01149 | 32889 ft | 469 kts | 102° |
| 2026-05-04 21:31 | 53.10484 | -144.85016 | 32899 ft | 466 kts | 102° |
| 2026-05-04 21:32 | 53.10466 | -144.74271 | 32902 ft | 466 kts | 102° |
| 2026-05-04 21:32 | 53.10436 | -144.63519 | 32899 ft | 467 kts | 102° |
| 2026-05-04 21:33 | 53.10399 | -144.52750 | 32901 ft | 468 kts | 102° |
| 2026-05-04 21:33 | 53.10353 | -144.41927 | 32906 ft | 465 kts | 102° |
| 2026-05-04 21:34 | 53.10295 | -144.31096 | 32915 ft | 464 kts | 102° |
| 2026-05-04 21:34 | 53.10226 | -144.20366 | 32919 ft | 468 kts | 102° |
| 2026-05-04 21:35 | 53.10150 | -144.09586 | 32930 ft | 468 kts | 102° |
| 2026-05-04 21:35 | 53.10063 | -143.98717 | 32934 ft | 467 kts | 102° |
| 2026-05-04 21:36 | 53.09967 | -143.88001 | 32945 ft | 468 kts | 102° |
| 2026-05-04 21:36 | 53.09863 | -143.77241 | 32940 ft | 465 kts | 102° |
| 2026-05-04 21:37 | 53.09743 | -143.66470 | 32953 ft | 471 kts | 102° |
| 2026-05-04 21:37 | 53.09621 | -143.55670 | 32949 ft | 467 kts | 102° |
| 2026-05-04 21:38 | 53.09483 | -143.44852 | 32955 ft | 470 kts | 102° |
| 2026-05-04 21:38 | 53.09341 | -143.34085 | 32949 ft | 465 kts | 103° |
| 2026-05-04 21:39 | 53.09185 | -143.23309 | 32961 ft | 469 kts | 103° |
| 2026-05-04 21:39 | 53.09022 | -143.12549 | 32963 ft | 464 kts | 102° |
| 2026-05-04 21:40 | 53.08845 | -143.01781 | 32980 ft | 470 kts | 102° |
| 2026-05-04 21:40 | 53.08664 | -142.91071 | 32977 ft | 466 kts | 102° |
| 2026-05-04 21:41 | 53.08468 | -142.80235 | 32981 ft | 469 kts | 102° |
| 2026-05-04 21:41 | 53.08266 | -142.69488 | 32980 ft | 467 kts | 102° |
| 2026-05-04 21:42 | 53.08052 | -142.58685 | 32985 ft | 469 kts | 102° |
| 2026-05-04 21:42 | 53.07829 | -142.47919 | 32991 ft | 468 kts | 102° |
| 2026-05-04 21:43 | 53.07594 | -142.37080 | 32992 ft | 472 kts | 102° |
| 2026-05-04 21:43 | 53.07354 | -142.26302 | 32993 ft | 468 kts | 103° |
| 2026-05-04 21:44 | 53.07101 | -142.15529 | 32997 ft | 466 kts | 103° |
| 2026-05-04 21:44 | 53.06839 | -142.04794 | 33006 ft | 469 kts | 103° |
| 2026-05-04 21:45 | 53.06568 | -141.94012 | 33007 ft | 467 kts | 103° |
| 2026-05-04 21:45 | 53.06283 | -141.83168 | 33006 ft | 470 kts | 102° |
| 2026-05-04 21:46 | 53.05991 | -141.72339 | 33010 ft | 469 kts | 103° |
| 2026-05-04 21:46 | 53.05688 | -141.61539 | 33009 ft | 472 kts | 102° |
| 2026-05-04 21:47 | 53.05374 | -141.50642 | 33010 ft | 470 kts | 102° |
| 2026-05-04 21:47 | 53.05051 | -141.39795 | 33018 ft | 473 kts | 102° |
| 2026-05-04 21:48 | 53.04721 | -141.28998 | 33018 ft | 470 kts | 103° |
| 2026-05-04 21:48 | 53.04378 | -141.18146 | 33019 ft | 469 kts | 103° |
| 2026-05-04 21:49 | 53.04026 | -141.07326 | 33016 ft | 470 kts | 103° |
| 2026-05-04 21:49 | 53.03664 | -140.96519 | 33020 ft | 471 kts | 102° |
| 2026-05-04 21:50 | 53.03289 | -140.85640 | 33029 ft | 473 kts | 102° |
| 2026-05-04 21:50 | 53.02908 | -140.74800 | 33030 ft | 472 kts | 102° |
| 2026-05-04 21:51 | 53.02514 | -140.63924 | 33038 ft | 472 kts | 102° |
| 2026-05-04 21:51 | 53.02113 | -140.53082 | 33029 ft | 471 kts | 102° |
| 2026-05-04 21:52 | 53.01701 | -140.42247 | 33040 ft | 472 kts | 102° |
| 2026-05-04 21:52 | 53.01279 | -140.31409 | 33037 ft | 471 kts | 103° |
| 2026-05-04 21:53 | 53.00850 | -140.20624 | 33035 ft | 470 kts | 103° |
| 2026-05-04 21:53 | 53.00408 | -140.09822 | 33041 ft | 472 kts | 103° |
| 2026-05-04 21:54 | 52.99504 | -139.99165 | 33051 ft | 458 kts | 114° |
| 2026-05-04 21:54 | 52.97697 | -139.89142 | 33051 ft | 454 kts | 116° |
| 2026-05-04 21:55 | 52.95785 | -139.79082 | 33049 ft | 456 kts | 116° |
| 2026-05-04 21:55 | 52.93835 | -139.69076 | 33055 ft | 455 kts | 116° |
| 2026-05-04 21:56 | 52.91876 | -139.59175 | 33067 ft | 456 kts | 116° |
| 2026-05-04 21:56 | 52.89889 | -139.49232 | 33066 ft | 455 kts | 116° |
| 2026-05-04 21:57 | 52.87889 | -139.39308 | 33087 ft | 456 kts | 116° |
| 2026-05-04 21:57 | 52.85869 | -139.29338 | 33089 ft | 455 kts | 117° |
| 2026-05-04 21:58 | 52.83848 | -139.19434 | 33093 ft | 457 kts | 117° |
| 2026-05-04 21:58 | 52.81823 | -139.09555 | 33098 ft | 455 kts | 116° |
| 2026-05-04 21:59 | 52.79780 | -138.99643 | 33099 ft | 456 kts | 116° |
| 2026-05-04 21:59 | 52.77744 | -138.89810 | 33101 ft | 456 kts | 116° |
| 2026-05-04 22:00 | 52.75675 | -138.79872 | 33100 ft | 456 kts | 116° |
| 2026-05-04 22:00 | 52.73612 | -138.70012 | 33101 ft | 457 kts | 116° |
| 2026-05-04 22:01 | 52.71526 | -138.60092 | 33101 ft | 459 kts | 116° |
| 2026-05-04 22:01 | 52.69437 | -138.50200 | 33101 ft | 458 kts | 116° |
| 2026-05-04 22:02 | 52.67333 | -138.40292 | 33101 ft | 460 kts | 116° |
| 2026-05-04 22:02 | 52.65232 | -138.30444 | 33096 ft | 458 kts | 117° |
| 2026-05-04 22:03 | 52.63105 | -138.20519 | 33097 ft | 459 kts | 116° |
| 2026-05-04 22:03 | 52.60979 | -138.10654 | 33096 ft | 459 kts | 116° |
| 2026-05-04 22:04 | 52.58837 | -138.00758 | 33096 ft | 460 kts | 116° |
| 2026-05-04 22:04 | 52.56696 | -137.90910 | 33095 ft | 459 kts | 116° |
| 2026-05-04 22:05 | 52.54541 | -137.81055 | 33093 ft | 460 kts | 116° |
| 2026-05-04 22:05 | 52.52375 | -137.71191 | 33091 ft | 462 kts | 116° |
| 2026-05-04 22:06 | 52.50187 | -137.61273 | 33087 ft | 462 kts | 116° |
| 2026-05-04 22:06 | 52.48001 | -137.51413 | 33083 ft | 463 kts | 115° |
| 2026-05-04 22:07 | 52.45786 | -137.41469 | 33079 ft | 463 kts | 115° |
| 2026-05-04 22:07 | 52.43577 | -137.31604 | 33078 ft | 464 kts | 116° |
| 2026-05-04 22:08 | 52.41351 | -137.21701 | 33071 ft | 463 kts | 116° |
| 2026-05-04 22:08 | 52.39125 | -137.11847 | 33068 ft | 462 kts | 116° |
| 2026-05-04 22:09 | 52.36877 | -137.01950 | 33067 ft | 465 kts | 116° |
| 2026-05-04 22:09 | 52.34593 | -136.91951 | 33065 ft | 481 kts | 115° |
| 2026-05-04 22:10 | 52.32252 | -136.81726 | 33066 ft | 479 kts | 115° |
| 2026-05-04 22:10 | 52.29892 | -136.71477 | 33062 ft | 480 kts | 115° |
| 2026-05-04 22:11 | 52.27534 | -136.61281 | 33059 ft | 481 kts | 115° |
| 2026-05-04 22:11 | 52.25184 | -136.51170 | 33062 ft | 479 kts | 115° |
| 2026-05-04 22:12 | 52.22801 | -136.40970 | 33062 ft | 480 kts | 115° |
| 2026-05-04 22:12 | 52.20421 | -136.30829 | 33054 ft | 480 kts | 116° |
| 2026-05-04 22:13 | 52.18028 | -136.20680 | 33052 ft | 481 kts | 115° |
| 2026-05-04 22:13 | 52.15616 | -136.10503 | 33052 ft | 481 kts | 115° |
| 2026-05-04 22:14 | 52.13207 | -136.00383 | 33047 ft | 481 kts | 115° |
| 2026-05-04 22:14 | 52.10792 | -135.90286 | 33052 ft | 481 kts | 115° |
| 2026-05-04 22:15 | 52.08364 | -135.80182 | 33049 ft | 481 kts | 115° |
| 2026-05-04 22:15 | 52.05926 | -135.70081 | 33047 ft | 482 kts | 115° |
| 2026-05-04 22:16 | 52.03487 | -135.60020 | 33044 ft | 481 kts | 115° |
| 2026-05-04 22:16 | 52.01037 | -135.49965 | 33041 ft | 481 kts | 115° |
| 2026-05-04 22:17 | 51.99151 | -135.39491 | 33043 ft | 486 kts | 103° |
| 2026-05-04 22:17 | 51.97939 | -135.28787 | 33035 ft | 486 kts | 104° |
| 2026-05-04 22:18 | 51.96693 | -135.18007 | 33034 ft | 486 kts | 104° |
| 2026-05-04 22:18 | 51.95428 | -135.07283 | 33035 ft | 486 kts | 104° |
| 2026-05-04 22:19 | 51.94147 | -134.96585 | 33029 ft | 485 kts | 104° |
| 2026-05-04 22:19 | 51.92853 | -134.85895 | 33026 ft | 487 kts | 104° |
| 2026-05-04 22:20 | 51.91540 | -134.75160 | 33021 ft | 487 kts | 104° |
| 2026-05-04 22:20 | 51.90246 | -134.64674 | 33017 ft | 486 kts | 104° |
| 2026-05-04 22:21 | 51.88907 | -134.53915 | 33020 ft | 486 kts | 104° |
| 2026-05-04 22:21 | 51.87573 | -134.43283 | 33013 ft | 486 kts | 103° |
| 2026-05-04 22:22 | 51.86219 | -134.32568 | 33009 ft | 487 kts | 104° |
| 2026-05-04 22:22 | 51.84853 | -134.21852 | 33004 ft | 488 kts | 105° |
| 2026-05-04 22:23 | 51.83477 | -134.11140 | 33002 ft | 488 kts | 105° |
| 2026-05-04 22:23 | 51.82093 | -134.00449 | 32996 ft | 488 kts | 105° |
| 2026-05-04 22:24 | 51.80694 | -133.89719 | 32996 ft | 488 kts | 104° |
| 2026-05-04 22:24 | 51.79287 | -133.79015 | 32992 ft | 488 kts | 104° |
| 2026-05-04 22:25 | 51.77873 | -133.68333 | 32992 ft | 489 kts | 104° |
| 2026-05-04 22:25 | 51.76441 | -133.57605 | 32989 ft | 490 kts | 104° |
| 2026-05-04 22:26 | 51.74997 | -133.46860 | 32991 ft | 490 kts | 104° |
| 2026-05-04 22:26 | 51.73550 | -133.36165 | 32989 ft | 489 kts | 104° |
| 2026-05-04 22:27 | 51.72097 | -133.25514 | 32983 ft | 490 kts | 105° |
| 2026-05-04 22:27 | 51.70626 | -133.14810 | 32980 ft | 490 kts | 105° |
| 2026-05-04 22:28 | 51.69141 | -133.04076 | 32976 ft | 491 kts | 105° |
| 2026-05-04 22:28 | 51.67646 | -132.93346 | 32971 ft | 492 kts | 105° |
| 2026-05-04 22:29 | 51.66141 | -132.82629 | 32972 ft | 492 kts | 104° |
| 2026-05-04 22:29 | 51.64624 | -132.71893 | 32972 ft | 492 kts | 104° |
| 2026-05-04 22:30 | 51.63097 | -132.61177 | 32972 ft | 492 kts | 104° |
| 2026-05-04 22:30 | 51.61568 | -132.50511 | 32975 ft | 492 kts | 104° |
| 2026-05-04 22:31 | 51.60018 | -132.39778 | 32998 ft | 498 kts | 104° |
| 2026-05-04 22:31 | 51.59228 | -132.34341 | 33464 ft | 501 kts | 105° |
| 2026-05-04 22:31 | 51.58442 | -132.28940 | 34461 ft | 494 kts | 105° |
| 2026-05-04 22:31 | 51.57668 | -132.23633 | 35546 ft | 486 kts | 105° |
| 2026-05-04 22:32 | 51.56895 | -132.18364 | 36489 ft | 480 kts | 105° |
| 2026-05-04 22:32 | 51.56133 | -132.13190 | 36969 ft | 481 kts | 105° |
| 2026-05-04 22:32 | 51.55357 | -132.07939 | 36972 ft | 482 kts | 105° |
| 2026-05-04 22:33 | 51.53812 | -131.97523 | 36970 ft | 482 kts | 105° |
| 2026-05-04 22:33 | 51.52249 | -131.87070 | 36975 ft | 482 kts | 105° |
| 2026-05-04 22:34 | 51.50680 | -131.76637 | 36967 ft | 482 kts | 105° |
| 2026-05-04 22:34 | 51.49107 | -131.66244 | 36973 ft | 482 kts | 105° |
| 2026-05-04 22:35 | 51.47516 | -131.55803 | 36964 ft | 483 kts | 104° |
| 2026-05-04 22:35 | 51.45917 | -131.45375 | 36961 ft | 482 kts | 104° |
| 2026-05-04 22:36 | 51.44305 | -131.34932 | 36957 ft | 482 kts | 105° |
| 2026-05-04 22:36 | 51.42699 | -131.24591 | 36955 ft | 481 kts | 105° |
| 2026-05-04 22:37 | 51.41079 | -131.14230 | 36953 ft | 481 kts | 105° |
| 2026-05-04 22:37 | 51.39437 | -131.03798 | 36951 ft | 482 kts | 105° |
| 2026-05-04 22:38 | 51.37792 | -130.93405 | 36951 ft | 482 kts | 105° |
| 2026-05-04 22:38 | 51.36154 | -130.83127 | 36949 ft | 481 kts | 105° |
| 2026-05-04 22:39 | 51.34487 | -130.72728 | 36951 ft | 482 kts | 104° |
| 2026-05-04 22:39 | 51.32818 | -130.62381 | 36949 ft | 482 kts | 104° |
| 2026-05-04 22:40 | 51.31134 | -130.52006 | 36949 ft | 483 kts | 104° |
| 2026-05-04 22:40 | 51.29443 | -130.41655 | 36948 ft | 483 kts | 104° |
| 2026-05-04 22:41 | 51.27741 | -130.31296 | 36944 ft | 483 kts | 105° |
| 2026-05-04 22:41 | 51.26037 | -130.20987 | 36947 ft | 483 kts | 105° |
| 2026-05-04 22:42 | 51.24314 | -130.10635 | 36948 ft | 483 kts | 105° |
| 2026-05-04 22:42 | 51.22586 | -130.00308 | 36939 ft | 483 kts | 104° |
| 2026-05-04 22:43 | 51.20851 | -129.90001 | 36938 ft | 483 kts | 104° |
| 2026-05-04 22:43 | 51.19096 | -129.79640 | 36928 ft | 484 kts | 104° |
| 2026-05-04 22:44 | 51.17335 | -129.69298 | 36925 ft | 484 kts | 104° |
| 2026-05-04 22:44 | 51.15573 | -129.59021 | 36923 ft | 484 kts | 104° |
| 2026-05-04 22:45 | 51.13802 | -129.48749 | 36920 ft | 484 kts | 104° |
| 2026-05-04 22:45 | 51.11111 | -129.33252 | 36917 ft | 484 kts | 105° |
| 2026-05-04 22:46 | 51.09312 | -129.22965 | 36916 ft | 483 kts | 104° |
| 2026-05-04 22:46 | 51.07510 | -129.12720 | 36913 ft | 483 kts | 104° |
| 2026-05-04 22:47 | 51.05692 | -129.02446 | 36913 ft | 484 kts | 104° |
| 2026-05-04 22:47 | 51.03878 | -128.92256 | 36908 ft | 484 kts | 104° |
| 2026-05-04 22:48 | 51.02036 | -128.81963 | 36910 ft | 483 kts | 104° |
| 2026-05-04 22:48 | 51.00198 | -128.71753 | 36910 ft | 483 kts | 104° |
| 2026-05-04 22:49 | 50.98351 | -128.61549 | 36915 ft | 483 kts | 104° |
| 2026-05-04 22:49 | 50.96492 | -128.51337 | 36915 ft | 484 kts | 104° |
| 2026-05-04 22:50 | 50.94624 | -128.41127 | 36913 ft | 482 kts | 104° |
| 2026-05-04 22:50 | 50.92748 | -128.30934 | 36905 ft | 483 kts | 104° |
| 2026-05-04 22:51 | 50.90862 | -128.20744 | 36901 ft | 483 kts | 104° |
| 2026-05-04 22:51 | 50.88969 | -128.10576 | 36892 ft | 482 kts | 104° |
| 2026-05-04 22:52 | 50.87072 | -128.00433 | 36902 ft | 484 kts | 104° |
| 2026-05-04 22:52 | 50.85162 | -127.90282 | 36906 ft | 484 kts | 104° |
| 2026-05-04 22:53 | 50.83232 | -127.80084 | 36910 ft | 483 kts | 104° |
| 2026-05-04 22:53 | 50.81312 | -127.69985 | 36906 ft | 483 kts | 104° |
| 2026-05-04 22:54 | 50.79372 | -127.59840 | 36896 ft | 482 kts | 104° |
| 2026-05-04 22:54 | 50.77440 | -127.49791 | 36889 ft | 482 kts | 104° |
| 2026-05-04 22:55 | 50.75488 | -127.39690 | 36881 ft | 483 kts | 104° |
| 2026-05-04 22:55 | 50.73514 | -127.29527 | 36879 ft | 484 kts | 104° |
| 2026-05-04 22:56 | 50.71546 | -127.19453 | 36876 ft | 484 kts | 104° |
| 2026-05-04 22:56 | 50.69568 | -127.09378 | 36871 ft | 484 kts | 104° |
| 2026-05-04 22:57 | 50.67567 | -126.99239 | 36862 ft | 483 kts | 104° |
| 2026-05-04 22:57 | 50.65577 | -126.89211 | 36865 ft | 484 kts | 104° |
| 2026-05-04 22:58 | 50.63563 | -126.79112 | 36888 ft | 483 kts | 104° |
| 2026-05-04 22:58 | 50.61544 | -126.69037 | 36902 ft | 483 kts | 104° |
| 2026-05-04 22:59 | 50.59529 | -126.59036 | 36899 ft | 485 kts | 103° |
| 2026-05-04 22:59 | 50.57488 | -126.48963 | 36880 ft | 484 kts | 103° |
| 2026-05-04 23:00 | 50.55439 | -126.38899 | 36885 ft | 482 kts | 103° |
| 2026-05-04 23:00 | 50.53392 | -126.28889 | 36879 ft | 483 kts | 104° |
| 2026-05-04 23:01 | 50.51329 | -126.18858 | 36878 ft | 484 kts | 104° |
| 2026-05-04 23:01 | 50.49254 | -126.08818 | 36873 ft | 484 kts | 104° |
| 2026-05-04 23:02 | 50.47180 | -125.98834 | 36883 ft | 484 kts | 104° |
| 2026-05-04 23:02 | 50.45089 | -125.88822 | 36883 ft | 483 kts | 104° |
| 2026-05-04 23:03 | 50.43006 | -125.78894 | 36885 ft | 484 kts | 104° |
| 2026-05-04 23:03 | 50.40890 | -125.68857 | 36885 ft | 484 kts | 103° |
| 2026-05-04 23:04 | 50.38782 | -125.58910 | 36911 ft | 483 kts | 103° |
| 2026-05-04 23:04 | 50.36660 | -125.48941 | 36943 ft | 484 kts | 103° |
| 2026-05-04 23:05 | 50.34533 | -125.39000 | 36929 ft | 484 kts | 103° |
| 2026-05-04 23:05 | 50.32389 | -125.29028 | 36904 ft | 485 kts | 104° |
| 2026-05-04 23:06 | 50.30245 | -125.19106 | 36883 ft | 484 kts | 104° |
| 2026-05-04 23:06 | 50.28081 | -125.09142 | 36876 ft | 483 kts | 104° |
| 2026-05-04 23:07 | 50.25906 | -124.99171 | 36862 ft | 484 kts | 104° |
| 2026-05-04 23:07 | 50.24823 | -124.94228 | 36620 ft | 479 kts | 104° |
| 2026-05-04 23:07 | 50.23744 | -124.89314 | 35752 ft | 482 kts | 104° |
| 2026-05-04 23:08 | 50.22665 | -124.84404 | 34872 ft | 484 kts | 104° |
| 2026-05-04 23:08 | 50.21569 | -124.79434 | 34097 ft | 484 kts | 104° |
| 2026-05-04 23:08 | 50.20500 | -124.74503 | 33359 ft | 483 kts | 103° |
| 2026-05-04 23:08 | 50.19501 | -124.69523 | 32569 ft | 485 kts | 102° |
| 2026-05-04 23:09 | 50.18517 | -124.64556 | 31750 ft | 486 kts | 102° |
| 2026-05-04 23:09 | 50.17514 | -124.59502 | 30940 ft | 488 kts | 102° |
| 2026-05-04 23:09 | 50.16509 | -124.54454 | 30373 ft | 483 kts | 103° |
| 2026-05-04 23:09 | 50.15527 | -124.49535 | 29924 ft | 477 kts | 103° |
| 2026-05-04 23:10 | 50.14550 | -124.44654 | 29419 ft | 472 kts | 103° |
| 2026-05-04 23:10 | 50.13570 | -124.39768 | 28875 ft | 468 kts | 102° |
| 2026-05-04 23:10 | 50.12613 | -124.35003 | 28330 ft | 465 kts | 102° |
| 2026-05-04 23:10 | 50.11643 | -124.30187 | 27776 ft | 461 kts | 103° |
| 2026-05-04 23:11 | 50.10691 | -124.25473 | 27242 ft | 458 kts | 103° |
| 2026-05-04 23:11 | 50.09741 | -124.20776 | 26689 ft | 455 kts | 103° |
| 2026-05-04 23:11 | 50.08793 | -124.16103 | 26137 ft | 452 kts | 103° |
| 2026-05-04 23:11 | 50.07852 | -124.11472 | 25583 ft | 449 kts | 103° |
| 2026-05-04 23:12 | 50.06905 | -124.06825 | 25017 ft | 446 kts | 103° |
| 2026-05-04 23:12 | 50.05983 | -124.02314 | 24458 ft | 443 kts | 103° |
| 2026-05-04 23:12 | 50.04837 | -123.97839 | 23874 ft | 444 kts | 111° |
| 2026-05-04 23:12 | 50.03306 | -123.93701 | 23323 ft | 446 kts | 120° |
| 2026-05-04 23:13 | 50.01384 | -123.89889 | 22781 ft | 446 kts | 129° |
| 2026-05-04 23:13 | 49.99168 | -123.86588 | 22261 ft | 446 kts | 138° |
| 2026-05-04 23:13 | 49.96679 | -123.83810 | 21748 ft | 444 kts | 146° |
| 2026-05-04 23:13 | 49.93932 | -123.81584 | 21230 ft | 442 kts | 155° |
| 2026-05-04 23:14 | 49.91049 | -123.79945 | 20600 ft | 439 kts | 159° |
| 2026-05-04 23:14 | 49.88287 | -123.78118 | 19955 ft | 434 kts | 153° |
| 2026-05-04 23:14 | 49.85575 | -123.76132 | 19293 ft | 434 kts | 153° |
| 2026-05-04 23:14 | 49.82838 | -123.74139 | 18660 ft | 433 kts | 155° |
| 2026-05-04 23:15 | 49.79996 | -123.72672 | 18052 ft | 432 kts | 165° |
| 2026-05-04 23:15 | 49.77095 | -123.71587 | 17453 ft | 430 kts | 166° |
| 2026-05-04 23:15 | 49.74180 | -123.70534 | 16846 ft | 428 kts | 166° |
| 2026-05-04 23:15 | 49.71322 | -123.69504 | 16286 ft | 425 kts | 166° |
| 2026-05-04 23:16 | 49.68429 | -123.68464 | 15711 ft | 421 kts | 166° |
| 2026-05-04 23:16 | 49.65624 | -123.67459 | 15134 ft | 416 kts | 166° |
| 2026-05-04 23:16 | 49.64937 | -123.67214 | 14992 ft | 416 kts | 166° |
| 2026-05-04 23:16 | 49.62131 | -123.66215 | 14499 ft | 408 kts | 166° |
| 2026-05-04 23:17 | 49.59411 | -123.65249 | 14398 ft | 391 kts | 166° |
| 2026-05-04 23:17 | 49.56810 | -123.64326 | 14296 ft | 376 kts | 166° |
| 2026-05-04 23:17 | 49.54347 | -123.63451 | 14111 ft | 362 kts | 166° |
| 2026-05-04 23:17 | 49.51885 | -123.62579 | 14105 ft | 372 kts | 166° |
| 2026-05-04 23:18 | 49.49268 | -123.61648 | 13924 ft | 398 kts | 166° |
| 2026-05-04 23:18 | 49.46529 | -123.60675 | 13299 ft | 401 kts | 166° |
| 2026-05-04 23:18 | 49.43853 | -123.59702 | 12678 ft | 399 kts | 163° |
| 2026-05-04 23:18 | 49.41286 | -123.58207 | 12097 ft | 394 kts | 152° |
| 2026-05-04 23:19 | 49.38964 | -123.56004 | 11488 ft | 388 kts | 140° |
| 2026-05-04 23:19 | 49.37040 | -123.53258 | 11051 ft | 377 kts | 128° |
| 2026-05-04 23:19 | 49.35552 | -123.50084 | 10704 ft | 356 kts | 117° |
| 2026-05-04 23:19 | 49.34539 | -123.46715 | 10332 ft | 338 kts | 106° |
| 2026-05-04 23:20 | 49.33940 | -123.43366 | 9996 ft | 322 kts | 100° |
| 2026-05-04 23:20 | 49.33392 | -123.40076 | 9647 ft | 310 kts | 103° |
| 2026-05-04 23:20 | 49.32881 | -123.36964 | 9353 ft | 296 kts | 99° |
| 2026-05-04 23:20 | 49.32478 | -123.33915 | 9116 ft | 285 kts | 98° |
| 2026-05-04 23:21 | 49.32137 | -123.30944 | 8842 ft | 280 kts | 98° |
| 2026-05-04 23:21 | 49.31826 | -123.28072 | 8534 ft | 274 kts | 97° |
| 2026-05-04 23:21 | 49.31523 | -123.25225 | 8305 ft | 267 kts | 97° |
| 2026-05-04 23:21 | 49.31227 | -123.22434 | 8048 ft | 265 kts | 97° |
| 2026-05-04 23:22 | 49.30930 | -123.19649 | 7795 ft | 263 kts | 97° |
| 2026-05-04 23:22 | 49.30637 | -123.16901 | 7532 ft | 260 kts | 97° |
| 2026-05-04 23:22 | 49.30346 | -123.14176 | 7283 ft | 255 kts | 97° |
| 2026-05-04 23:22 | 49.30060 | -123.11510 | 7084 ft | 254 kts | 97° |
| 2026-05-04 23:23 | 49.29774 | -123.08842 | 6832 ft | 252 kts | 97° |
| 2026-05-04 23:23 | 49.29489 | -123.06197 | 6601 ft | 249 kts | 97° |
| 2026-05-04 23:23 | 49.29208 | -123.03596 | 6359 ft | 247 kts | 97° |
| 2026-05-04 23:23 | 49.28931 | -123.01032 | 6143 ft | 244 kts | 97° |
| 2026-05-04 23:24 | 49.28607 | -122.98506 | 5928 ft | 241 kts | 102° |
| 2026-05-04 23:24 | 49.28184 | -122.96060 | 5822 ft | 235 kts | 103° |
| 2026-05-04 23:24 | 49.27748 | -122.93614 | 5770 ft | 237 kts | 103° |
| 2026-05-04 23:24 | 49.27388 | -122.91582 | 5682 ft | 237 kts | 103° |
| 2026-05-04 23:25 | 49.27206 | -122.90552 | 5581 ft | 235 kts | 104° |
| 2026-05-04 23:25 | 49.26779 | -122.88142 | 5496 ft | 234 kts | 104° |
| 2026-05-04 23:25 | 49.26349 | -122.85718 | 5413 ft | 234 kts | 104° |
| 2026-05-04 23:25 | 49.25925 | -122.83329 | 5334 ft | 234 kts | 104° |
| 2026-05-04 23:26 | 49.25497 | -122.80920 | 5270 ft | 234 kts | 104° |
| 2026-05-04 23:26 | 49.25071 | -122.78529 | 5162 ft | 234 kts | 103° |
| 2026-05-04 23:26 | 49.24641 | -122.76125 | 5089 ft | 235 kts | 115° |
| 2026-05-04 23:26 | 49.23583 | -122.74213 | 5045 ft | 238 kts | 148° |
| 2026-05-04 23:27 | 49.22044 | -122.73444 | 5037 ft | 237 kts | 179° |
| 2026-05-04 23:27 | 49.20404 | -122.73530 | 5057 ft | 237 kts | 185° |
| 2026-05-04 23:27 | 49.18740 | -122.73714 | 5059 ft | 237 kts | 185° |
| 2026-05-04 23:27 | 49.17130 | -122.74127 | 5003 ft | 235 kts | 206° |
| 2026-05-04 23:28 | 49.15857 | -122.75614 | 4899 ft | 234 kts | 234° |
| 2026-05-04 23:28 | 49.15218 | -122.77883 | 4410 ft | 236 kts | 266° |
| 2026-05-04 23:28 | 49.15456 | -122.80311 | 4204 ft | 225 kts | 295° |
| 2026-05-04 23:28 | 49.16027 | -122.82448 | 4176 ft | 214 kts | 289° |
| 2026-05-04 23:29 | 49.16405 | -122.84618 | 4020 ft | 209 kts | 281° |
| 2026-05-04 23:29 | 49.16640 | -122.86839 | 3779 ft | 209 kts | 281° |
| 2026-05-04 23:29 | 49.16885 | -122.89020 | 3506 ft | 209 kts | 282° |
| 2026-05-04 23:29 | 49.17142 | -122.91187 | 3220 ft | 204 kts | 282° |
| 2026-05-04 23:30 | 49.17393 | -122.93287 | 2967 ft | 199 kts | 281° |
| 2026-05-04 23:30 | 49.17642 | -122.95370 | 2740 ft | 196 kts | 281° |
| 2026-05-04 23:30 | 49.17881 | -122.97393 | 2451 ft | 190 kts | 281° |
| 2026-05-04 23:30 | 49.18104 | -122.99272 | 2232 ft | 173 kts | 281° |
| 2026-05-04 23:31 | 49.18313 | -123.01030 | 1994 ft | 159 kts | 280° |
| 2026-05-04 23:31 | 49.18504 | -123.02653 | 1793 ft | 154 kts | 279° |
| 2026-05-04 23:31 | 49.18692 | -123.04263 | 1587 ft | 151 kts | 279° |
| 2026-05-04 23:31 | 49.18872 | -123.05819 | 1382 ft | 150 kts | 279° |
| 2026-05-04 23:32 | 49.19054 | -123.07384 | 1174 ft | 148 kts | 279° |
| 2026-05-04 23:32 | 49.19236 | -123.08958 | 966 ft | 149 kts | 279° |
| 2026-05-04 23:32 | 49.19416 | -123.10512 | 762 ft | 148 kts | 279° |
| 2026-05-04 23:32 | 49.19597 | -123.12080 | 558 ft | 150 kts | 278° |
| 2026-05-04 23:33 | 49.19776 | -123.13635 | 377 ft | 149 kts | 278° |
| 2026-05-04 23:33 | 49.19964 | -123.15220 | 169 ft | 152 kts | 278° |
| 2026-05-04 23:33 | 49.20141 | -123.16756 | 18 ft | 136 kts | 278° |
| 2026-05-04 23:33 | 49.20275 | -123.17956 | 17 ft | 91 kts | 280° |
| 2026-05-04 23:34 | 49.20360 | -123.18681 | 17 ft | 47 kts | 283° |
| 2026-05-04 23:34 | 49.20393 | -123.19094 | 17 ft | 33 kts | 268° |
| 2026-05-04 23:34 | 49.20349 | -123.19378 | 17 ft | 13 kts | 250° |
| 2026-05-04 23:34 | 49.20326 | -123.19475 | 17 ft | 4 kts | 250° |
| 2026-05-04 23:35 | 49.20316 | -123.19518 | 17 ft | 4 kts | 250° |
| 2026-05-04 23:35 | 49.20304 | -123.19567 | 17 ft | 4 kts | 247° |
| 2026-05-04 23:35 | 49.20282 | -123.19595 | 17 ft | 4 kts | 195° |
| 2026-05-04 23:35 | 49.20261 | -123.19586 | 17 ft | 2 kts | 138° |
| 2026-05-04 23:36 | 49.20244 | -123.19534 | 17 ft | 8 kts | 104° |
| 2026-05-04 23:36 | 49.20231 | -123.19440 | 17 ft | 9 kts | 100° |
| 2026-05-04 23:36 | 49.20219 | -123.19339 | 17 ft | 9 kts | 100° |
| 2026-05-04 23:36 | 49.20207 | -123.19237 | 17 ft | 9 kts | 101° |
| 2026-05-04 23:37 | 49.20195 | -123.19134 | 17 ft | 9 kts | 100° |
| 2026-05-04 23:37 | 49.20183 | -123.19029 | 17 ft | 10 kts | 99° |
| 2026-05-04 23:37 | 49.20172 | -123.18922 | 17 ft | 10 kts | 99° |
| 2026-05-04 23:37 | 49.20160 | -123.18815 | 17 ft | 10 kts | 102° |
| 2026-05-04 23:38 | 49.20146 | -123.18707 | 17 ft | 10 kts | 101° |
| 2026-05-04 23:38 | 49.20133 | -123.18600 | 17 ft | 10 kts | 98° |
| 2026-05-04 23:38 | 49.20118 | -123.18522 | 17 ft | 4 kts | 137° |
| 2026-05-04 23:38 | 49.20083 | -123.18505 | 17 ft | 5 kts | 164° |
| 2026-05-04 23:39 | 49.20054 | -123.18470 | 17 ft | 5 kts | 121° |
| 2026-05-04 23:39 | 49.20041 | -123.18409 | 17 ft | 6 kts | 102° |
| 2026-05-04 23:39 | 49.20032 | -123.18341 | 17 ft | 6 kts | 101° |
| 2026-05-04 23:39 | 49.20024 | -123.18266 | 17 ft | 7 kts | 100° |
| 2026-05-04 23:40 | 49.20015 | -123.18185 | 17 ft | 7 kts | 100° |
| 2026-05-04 23:40 | 49.20005 | -123.18101 | 17 ft | 8 kts | 100° |
| 2026-05-04 23:40 | 49.19997 | -123.18038 | 17 ft | 3 kts | 113° |
| 2026-05-04 23:40 | 49.19977 | -123.18019 | 17 ft | 3 kts | 167° |
| 2026-05-04 23:41 | 49.19949 | -123.18020 | 17 ft | 4 kts | 186° |
| 2026-05-04 23:41 | 49.19927 | -123.18024 | 17 ft | 0 kts | 189° |
| 2026-05-04 23:41 | 49.19924 | -123.18025 | 17 ft | 0 kts | 189° |